<?xml version="1.0" encoding="UTF-8" standalone="no" ?>
<gpx xmlns="http://www.topografix.com/GPX/1/1" xmlns:xsi="http://www.w3.org/2001/XMLSchema-instance" xsi:schemaLocation="http://www.topografix.com/GPX/1/1 http://www.topografix.com/GPX/1/1/gpx.xsd" version="1.1" creator="VisuGPX - https://www.visugpx.com">
  <metadata>
    <name>2020-05-11 Déconfinement sous la drache avec Lulu</name>
  </metadata>
  <trk>
    <name><![CDATA[2020-05-11 09:19:25]]></name>
    <trkseg>
      <trkpt lat="48.00146" lon="7.002">
        <ele>706</ele>
        <time>2020-05-11T07:19:25.999Z</time>
      </trkpt>
      <trkpt lat="48.00148" lon="7.00213">
        <ele>705</ele>
        <time>2020-05-11T07:20:00.999Z</time>
      </trkpt>
      <trkpt lat="48.00139" lon="7.00217">
        <ele>704</ele>
        <time>2020-05-11T07:21:00.999Z</time>
      </trkpt>
      <trkpt lat="48.00136" lon="7.00204">
        <ele>705</ele>
        <time>2020-05-11T07:22:44.999Z</time>
      </trkpt>
      <trkpt lat="48.00125" lon="7.00202">
        <ele>704</ele>
        <time>2020-05-11T07:22:50.999Z</time>
      </trkpt>
      <trkpt lat="48.00115" lon="7.00197">
        <ele>703</ele>
        <time>2020-05-11T07:22:57.999Z</time>
      </trkpt>
      <trkpt lat="48.00106" lon="7.0019">
        <ele>703</ele>
        <time>2020-05-11T07:23:07.999Z</time>
      </trkpt>
      <trkpt lat="48.00097" lon="7.00186">
        <ele>702</ele>
        <time>2020-05-11T07:23:16.999Z</time>
      </trkpt>
      <trkpt lat="48.00092" lon="7.00173">
        <ele>702</ele>
        <time>2020-05-11T07:23:22.999Z</time>
      </trkpt>
      <trkpt lat="48.00089" lon="7.0016">
        <ele>705</ele>
        <time>2020-05-11T07:23:31.999Z</time>
      </trkpt>
      <trkpt lat="48.00089" lon="7.00146">
        <ele>708</ele>
        <time>2020-05-11T07:23:36.999Z</time>
      </trkpt>
      <trkpt lat="48.00087" lon="7.00132">
        <ele>710</ele>
        <time>2020-05-11T07:23:43.999Z</time>
      </trkpt>
      <trkpt lat="48.00085" lon="7.00119">
        <ele>711</ele>
        <time>2020-05-11T07:23:52.999Z</time>
      </trkpt>
      <trkpt lat="48.00081" lon="7.00106">
        <ele>716</ele>
        <time>2020-05-11T07:24:02.999Z</time>
      </trkpt>
      <trkpt lat="48.00079" lon="7.00092">
        <ele>716</ele>
        <time>2020-05-11T07:24:16.999Z</time>
      </trkpt>
      <trkpt lat="48.00074" lon="7.0008">
        <ele>720</ele>
        <time>2020-05-11T07:24:32.999Z</time>
      </trkpt>
      <trkpt lat="48.00071" lon="7.00064">
        <ele>724</ele>
        <time>2020-05-11T07:24:40.999Z</time>
      </trkpt>
      <trkpt lat="48.00073" lon="7.0005">
        <ele>726</ele>
        <time>2020-05-11T07:24:47.999Z</time>
      </trkpt>
      <trkpt lat="48.00078" lon="7.00037">
        <ele>726</ele>
        <time>2020-05-11T07:24:53.999Z</time>
      </trkpt>
      <trkpt lat="48.00084" lon="7.00026">
        <ele>720</ele>
        <time>2020-05-11T07:24:59.999Z</time>
      </trkpt>
      <trkpt lat="48.00091" lon="7.00014">
        <ele>720</ele>
        <time>2020-05-11T07:25:04.999Z</time>
      </trkpt>
      <trkpt lat="48.00098" lon="7.00003">
        <ele>720</ele>
        <time>2020-05-11T07:25:09.999Z</time>
      </trkpt>
      <trkpt lat="48.00103" lon="6.99991">
        <ele>723</ele>
        <time>2020-05-11T07:25:16.999Z</time>
      </trkpt>
      <trkpt lat="48.00109" lon="6.9998">
        <ele>723</ele>
        <time>2020-05-11T07:25:22.999Z</time>
      </trkpt>
      <trkpt lat="48.00111" lon="6.99967">
        <ele>724</ele>
        <time>2020-05-11T07:25:43.999Z</time>
      </trkpt>
      <trkpt lat="48.00115" lon="6.99954">
        <ele>724</ele>
        <time>2020-05-11T07:25:55.999Z</time>
      </trkpt>
      <trkpt lat="48.00118" lon="6.99941">
        <ele>724</ele>
        <time>2020-05-11T07:26:05.999Z</time>
      </trkpt>
      <trkpt lat="48.0012" lon="6.99928">
        <ele>725</ele>
        <time>2020-05-11T07:26:12.999Z</time>
      </trkpt>
      <trkpt lat="48.00121" lon="6.99914">
        <ele>728</ele>
        <time>2020-05-11T07:26:20.999Z</time>
      </trkpt>
      <trkpt lat="48.00119" lon="6.999">
        <ele>729</ele>
        <time>2020-05-11T07:26:30.999Z</time>
      </trkpt>
      <trkpt lat="48.00115" lon="6.99887">
        <ele>729</ele>
        <time>2020-05-11T07:26:39.999Z</time>
      </trkpt>
      <trkpt lat="48.0011" lon="6.99875">
        <ele>730</ele>
        <time>2020-05-11T07:26:49.999Z</time>
      </trkpt>
      <trkpt lat="48.0011" lon="6.99859">
        <ele>731</ele>
        <time>2020-05-11T07:27:04.999Z</time>
      </trkpt>
      <trkpt lat="48.00112" lon="6.99846">
        <ele>732</ele>
        <time>2020-05-11T07:27:10.999Z</time>
      </trkpt>
      <trkpt lat="48.00114" lon="6.99833">
        <ele>732</ele>
        <time>2020-05-11T07:27:19.999Z</time>
      </trkpt>
      <trkpt lat="48.00114" lon="6.9982">
        <ele>738</ele>
        <time>2020-05-11T07:27:32.999Z</time>
      </trkpt>
      <trkpt lat="48.00106" lon="6.99827">
        <ele>738</ele>
        <time>2020-05-11T07:27:56.999Z</time>
      </trkpt>
      <trkpt lat="48.00102" lon="6.99841">
        <ele>733</ele>
        <time>2020-05-11T07:28:04.999Z</time>
      </trkpt>
      <trkpt lat="48.00096" lon="6.99854">
        <ele>732</ele>
        <time>2020-05-11T07:28:12.999Z</time>
      </trkpt>
      <trkpt lat="48.00089" lon="6.99863">
        <ele>731</ele>
        <time>2020-05-11T07:28:18.999Z</time>
      </trkpt>
      <trkpt lat="48.00083" lon="6.99873">
        <ele>743</ele>
        <time>2020-05-11T07:28:25.999Z</time>
      </trkpt>
      <trkpt lat="48.00075" lon="6.99881">
        <ele>743</ele>
        <time>2020-05-11T07:28:31.999Z</time>
      </trkpt>
      <trkpt lat="48.00067" lon="6.99888">
        <ele>743</ele>
        <time>2020-05-11T07:28:38.999Z</time>
      </trkpt>
      <trkpt lat="48.0006" lon="6.99896">
        <ele>743</ele>
        <time>2020-05-11T07:28:44.999Z</time>
      </trkpt>
      <trkpt lat="48.00054" lon="6.99907">
        <ele>744</ele>
        <time>2020-05-11T07:28:56.999Z</time>
      </trkpt>
      <trkpt lat="48.00047" lon="6.99917">
        <ele>740</ele>
        <time>2020-05-11T07:29:04.999Z</time>
      </trkpt>
      <trkpt lat="48.0004" lon="6.99925">
        <ele>742</ele>
        <time>2020-05-11T07:29:15.999Z</time>
      </trkpt>
      <trkpt lat="48.00032" lon="6.99934">
        <ele>744</ele>
        <time>2020-05-11T07:29:22.999Z</time>
      </trkpt>
      <trkpt lat="47.9999" lon="7.00026">
        <ele>759</ele>
        <time>2020-05-11T07:31:23.999Z</time>
      </trkpt>
      <trkpt lat="47.99981" lon="7.00031">
        <ele>760</ele>
        <time>2020-05-11T07:31:50.999Z</time>
      </trkpt>
      <trkpt lat="47.99975" lon="7.00042">
        <ele>761</ele>
        <time>2020-05-11T07:32:01.999Z</time>
      </trkpt>
      <trkpt lat="47.99967" lon="7.0005">
        <ele>762</ele>
        <time>2020-05-11T07:32:07.999Z</time>
      </trkpt>
      <trkpt lat="47.99957" lon="7.00059">
        <ele>764</ele>
        <time>2020-05-11T07:32:12.999Z</time>
      </trkpt>
      <trkpt lat="47.99951" lon="7.0007">
        <ele>765</ele>
        <time>2020-05-11T07:32:27.999Z</time>
      </trkpt>
      <trkpt lat="47.99946" lon="7.00082">
        <ele>766</ele>
        <time>2020-05-11T07:32:44.999Z</time>
      </trkpt>
      <trkpt lat="47.9994" lon="7.00094">
        <ele>759</ele>
        <time>2020-05-11T07:32:53.999Z</time>
      </trkpt>
      <trkpt lat="47.99936" lon="7.00106">
        <ele>758</ele>
        <time>2020-05-11T07:33:06.999Z</time>
      </trkpt>
      <trkpt lat="47.99928" lon="7.00115">
        <ele>757</ele>
        <time>2020-05-11T07:33:24.999Z</time>
      </trkpt>
      <trkpt lat="47.9992" lon="7.00123">
        <ele>757</ele>
        <time>2020-05-11T07:33:35.999Z</time>
      </trkpt>
      <trkpt lat="47.99915" lon="7.00134">
        <ele>773</ele>
        <time>2020-05-11T07:33:49.999Z</time>
      </trkpt>
      <trkpt lat="47.99908" lon="7.00144">
        <ele>772</ele>
        <time>2020-05-11T07:34:01.999Z</time>
      </trkpt>
      <trkpt lat="47.999" lon="7.00152">
        <ele>771</ele>
        <time>2020-05-11T07:34:11.999Z</time>
      </trkpt>
      <trkpt lat="47.99892" lon="7.0016">
        <ele>772</ele>
        <time>2020-05-11T07:34:25.999Z</time>
      </trkpt>
      <trkpt lat="47.99884" lon="7.00167">
        <ele>764</ele>
        <time>2020-05-11T07:34:36.999Z</time>
      </trkpt>
      <trkpt lat="47.99875" lon="7.00169">
        <ele>766</ele>
        <time>2020-05-11T07:34:50.999Z</time>
      </trkpt>
      <trkpt lat="47.99866" lon="7.00166">
        <ele>777</ele>
        <time>2020-05-11T07:35:03.999Z</time>
      </trkpt>
      <trkpt lat="47.99857" lon="7.0016">
        <ele>778</ele>
        <time>2020-05-11T07:35:13.999Z</time>
      </trkpt>
      <trkpt lat="47.99849" lon="7.00152">
        <ele>779</ele>
        <time>2020-05-11T07:35:27.999Z</time>
      </trkpt>
      <trkpt lat="47.99841" lon="7.00145">
        <ele>780</ele>
        <time>2020-05-11T07:35:41.999Z</time>
      </trkpt>
      <trkpt lat="47.99835" lon="7.00136">
        <ele>781</ele>
        <time>2020-05-11T07:35:54.999Z</time>
      </trkpt>
      <trkpt lat="47.9983" lon="7.00123">
        <ele>794</ele>
        <time>2020-05-11T07:36:03.999Z</time>
      </trkpt>
      <trkpt lat="47.99825" lon="7.0011">
        <ele>796</ele>
        <time>2020-05-11T07:36:19.999Z</time>
      </trkpt>
      <trkpt lat="47.99821" lon="7.00098">
        <ele>797</ele>
        <time>2020-05-11T07:36:33.999Z</time>
      </trkpt>
      <trkpt lat="47.99816" lon="7.00086">
        <ele>798</ele>
        <time>2020-05-11T07:36:45.999Z</time>
      </trkpt>
      <trkpt lat="47.9981" lon="7.00076">
        <ele>807</ele>
        <time>2020-05-11T07:36:56.999Z</time>
      </trkpt>
      <trkpt lat="47.99806" lon="7.00062">
        <ele>809</ele>
        <time>2020-05-11T07:37:09.999Z</time>
      </trkpt>
      <trkpt lat="47.99806" lon="7.00049">
        <ele>811</ele>
        <time>2020-05-11T07:37:22.999Z</time>
      </trkpt>
      <trkpt lat="47.99807" lon="7.00035">
        <ele>813</ele>
        <time>2020-05-11T07:37:35.000Z</time>
      </trkpt>
      <trkpt lat="47.99802" lon="7.00023">
        <ele>814</ele>
        <time>2020-05-11T07:37:45.000Z</time>
      </trkpt>
      <trkpt lat="47.99794" lon="7.00016">
        <ele>815</ele>
        <time>2020-05-11T07:37:52.000Z</time>
      </trkpt>
      <trkpt lat="47.99784" lon="7.00011">
        <ele>815</ele>
        <time>2020-05-11T07:38:03.000Z</time>
      </trkpt>
      <trkpt lat="47.99776" lon="7.00003">
        <ele>815</ele>
        <time>2020-05-11T07:38:16.000Z</time>
      </trkpt>
      <trkpt lat="47.9977" lon="6.99992">
        <ele>826</ele>
        <time>2020-05-11T07:38:28.000Z</time>
      </trkpt>
      <trkpt lat="47.99766" lon="6.99979">
        <ele>827</ele>
        <time>2020-05-11T07:38:39.000Z</time>
      </trkpt>
      <trkpt lat="47.99762" lon="6.99966">
        <ele>828</ele>
        <time>2020-05-11T07:38:54.000Z</time>
      </trkpt>
      <trkpt lat="47.99761" lon="6.99952">
        <ele>830</ele>
        <time>2020-05-11T07:39:08.000Z</time>
      </trkpt>
      <trkpt lat="47.99761" lon="6.99938">
        <ele>831</ele>
        <time>2020-05-11T07:39:19.000Z</time>
      </trkpt>
      <trkpt lat="47.99758" lon="6.99924">
        <ele>831</ele>
        <time>2020-05-11T07:39:31.000Z</time>
      </trkpt>
      <trkpt lat="47.99751" lon="6.99914">
        <ele>833</ele>
        <time>2020-05-11T07:39:42.000Z</time>
      </trkpt>
      <trkpt lat="47.99745" lon="6.99905">
        <ele>836</ele>
        <time>2020-05-11T07:39:55.000Z</time>
      </trkpt>
      <trkpt lat="47.99738" lon="6.99895">
        <ele>839</ele>
        <time>2020-05-11T07:40:09.000Z</time>
      </trkpt>
      <trkpt lat="47.99733" lon="6.99882">
        <ele>841</ele>
        <time>2020-05-11T07:40:19.000Z</time>
      </trkpt>
      <trkpt lat="47.99726" lon="6.9987">
        <ele>842</ele>
        <time>2020-05-11T07:40:27.000Z</time>
      </trkpt>
      <trkpt lat="47.99725" lon="6.99857">
        <ele>843</ele>
        <time>2020-05-11T07:40:46.000Z</time>
      </trkpt>
      <trkpt lat="47.99721" lon="6.99844">
        <ele>844</ele>
        <time>2020-05-11T07:41:14.000Z</time>
      </trkpt>
      <trkpt lat="47.99722" lon="6.9983">
        <ele>849</ele>
        <time>2020-05-11T07:41:35.000Z</time>
      </trkpt>
      <trkpt lat="47.99715" lon="6.9982">
        <ele>849</ele>
        <time>2020-05-11T07:41:42.000Z</time>
      </trkpt>
      <trkpt lat="47.99706" lon="6.99807">
        <ele>849</ele>
        <time>2020-05-11T07:41:47.000Z</time>
      </trkpt>
      <trkpt lat="47.99698" lon="6.99797">
        <ele>850</ele>
        <time>2020-05-11T07:41:52.000Z</time>
      </trkpt>
      <trkpt lat="47.9969" lon="6.99791">
        <ele>849</ele>
        <time>2020-05-11T07:42:00.000Z</time>
      </trkpt>
      <trkpt lat="47.99681" lon="6.99783">
        <ele>849</ele>
        <time>2020-05-11T07:42:10.000Z</time>
      </trkpt>
      <trkpt lat="47.99676" lon="6.99772">
        <ele>849</ele>
        <time>2020-05-11T07:42:19.000Z</time>
      </trkpt>
      <trkpt lat="47.99671" lon="6.9976">
        <ele>848</ele>
        <time>2020-05-11T07:42:30.000Z</time>
      </trkpt>
      <trkpt lat="47.99676" lon="6.99747">
        <ele>852</ele>
        <time>2020-05-11T07:43:09.000Z</time>
      </trkpt>
      <trkpt lat="47.99674" lon="6.99733">
        <ele>854</ele>
        <time>2020-05-11T07:43:21.000Z</time>
      </trkpt>
      <trkpt lat="47.9967" lon="6.9972">
        <ele>857</ele>
        <time>2020-05-11T07:43:34.000Z</time>
      </trkpt>
      <trkpt lat="47.99665" lon="6.99708">
        <ele>856</ele>
        <time>2020-05-11T07:43:43.000Z</time>
      </trkpt>
      <trkpt lat="47.9966" lon="6.99696">
        <ele>857</ele>
        <time>2020-05-11T07:43:53.000Z</time>
      </trkpt>
      <trkpt lat="47.99654" lon="6.99685">
        <ele>858</ele>
        <time>2020-05-11T07:44:03.000Z</time>
      </trkpt>
      <trkpt lat="47.9965" lon="6.99672">
        <ele>858</ele>
        <time>2020-05-11T07:44:13.000Z</time>
      </trkpt>
      <trkpt lat="47.99646" lon="6.9966">
        <ele>860</ele>
        <time>2020-05-11T07:44:23.000Z</time>
      </trkpt>
      <trkpt lat="47.99642" lon="6.99647">
        <ele>861</ele>
        <time>2020-05-11T07:44:38.000Z</time>
      </trkpt>
      <trkpt lat="47.99639" lon="6.99635">
        <ele>861</ele>
        <time>2020-05-11T07:44:48.000Z</time>
      </trkpt>
      <trkpt lat="47.99634" lon="6.99623">
        <ele>861</ele>
        <time>2020-05-11T07:45:16.000Z</time>
      </trkpt>
      <trkpt lat="47.99634" lon="6.99609">
        <ele>862</ele>
        <time>2020-05-11T07:48:35.000Z</time>
      </trkpt>
      <trkpt lat="47.99633" lon="6.99595">
        <ele>862</ele>
        <time>2020-05-11T07:48:47.000Z</time>
      </trkpt>
      <trkpt lat="47.9963" lon="6.99581">
        <ele>868</ele>
        <time>2020-05-11T07:48:57.000Z</time>
      </trkpt>
      <trkpt lat="47.99628" lon="6.99568">
        <ele>868</ele>
        <time>2020-05-11T07:49:09.000Z</time>
      </trkpt>
      <trkpt lat="47.99625" lon="6.99555">
        <ele>869</ele>
        <time>2020-05-11T07:49:20.000Z</time>
      </trkpt>
      <trkpt lat="47.9962" lon="6.99543">
        <ele>869</ele>
        <time>2020-05-11T07:49:34.000Z</time>
      </trkpt>
      <trkpt lat="47.99629" lon="6.99548">
        <ele>870</ele>
        <time>2020-05-11T07:50:19.000Z</time>
      </trkpt>
      <trkpt lat="47.99638" lon="6.99553">
        <ele>870</ele>
        <time>2020-05-11T07:50:26.000Z</time>
      </trkpt>
      <trkpt lat="47.99646" lon="6.9956">
        <ele>871</ele>
        <time>2020-05-11T07:50:34.000Z</time>
      </trkpt>
      <trkpt lat="47.99655" lon="6.99566">
        <ele>871</ele>
        <time>2020-05-11T07:50:45.000Z</time>
      </trkpt>
      <trkpt lat="47.99663" lon="6.99574">
        <ele>871</ele>
        <time>2020-05-11T07:50:59.000Z</time>
      </trkpt>
      <trkpt lat="47.99671" lon="6.99581">
        <ele>875</ele>
        <time>2020-05-11T07:51:14.000Z</time>
      </trkpt>
      <trkpt lat="47.99681" lon="6.99582">
        <ele>880</ele>
        <time>2020-05-11T07:51:23.000Z</time>
      </trkpt>
      <trkpt lat="47.9969" lon="6.99582">
        <ele>884</ele>
        <time>2020-05-11T07:51:35.000Z</time>
      </trkpt>
      <trkpt lat="47.99698" lon="6.99591">
        <ele>877</ele>
        <time>2020-05-11T07:51:47.000Z</time>
      </trkpt>
      <trkpt lat="47.99706" lon="6.99595">
        <ele>879</ele>
        <time>2020-05-11T07:52:18.000Z</time>
      </trkpt>
      <trkpt lat="47.99708" lon="6.99612">
        <ele>878</ele>
        <time>2020-05-11T07:52:27.000Z</time>
      </trkpt>
      <trkpt lat="47.99711" lon="6.99625">
        <ele>877</ele>
        <time>2020-05-11T07:52:34.000Z</time>
      </trkpt>
      <trkpt lat="47.99715" lon="6.99638">
        <ele>877</ele>
        <time>2020-05-11T07:52:43.000Z</time>
      </trkpt>
      <trkpt lat="47.99722" lon="6.99647">
        <ele>877</ele>
        <time>2020-05-11T07:52:50.000Z</time>
      </trkpt>
      <trkpt lat="47.99729" lon="6.99657">
        <ele>877</ele>
        <time>2020-05-11T07:52:58.000Z</time>
      </trkpt>
      <trkpt lat="47.99739" lon="6.99663">
        <ele>878</ele>
        <time>2020-05-11T07:53:09.000Z</time>
      </trkpt>
      <trkpt lat="47.99747" lon="6.99666">
        <ele>879</ele>
        <time>2020-05-11T07:53:17.000Z</time>
      </trkpt>
      <trkpt lat="47.99757" lon="6.9967">
        <ele>879</ele>
        <time>2020-05-11T07:53:22.000Z</time>
      </trkpt>
      <trkpt lat="47.99766" lon="6.99675">
        <ele>880</ele>
        <time>2020-05-11T07:53:35.000Z</time>
      </trkpt>
      <trkpt lat="47.99775" lon="6.9968">
        <ele>880</ele>
        <time>2020-05-11T07:53:45.000Z</time>
      </trkpt>
      <trkpt lat="47.99782" lon="6.99688">
        <ele>880</ele>
        <time>2020-05-11T07:53:53.000Z</time>
      </trkpt>
      <trkpt lat="47.99791" lon="6.99694">
        <ele>881</ele>
        <time>2020-05-11T07:54:04.000Z</time>
      </trkpt>
      <trkpt lat="47.99798" lon="6.99703">
        <ele>881</ele>
        <time>2020-05-11T07:54:13.000Z</time>
      </trkpt>
      <trkpt lat="47.99805" lon="6.99714">
        <ele>880</ele>
        <time>2020-05-11T07:54:21.000Z</time>
      </trkpt>
      <trkpt lat="47.99812" lon="6.99723">
        <ele>880</ele>
        <time>2020-05-11T07:54:33.000Z</time>
      </trkpt>
      <trkpt lat="47.99818" lon="6.99734">
        <ele>880</ele>
        <time>2020-05-11T07:54:41.000Z</time>
      </trkpt>
      <trkpt lat="47.99823" lon="6.99722">
        <ele>881</ele>
        <time>2020-05-11T07:55:01.000Z</time>
      </trkpt>
      <trkpt lat="47.99822" lon="6.99709">
        <ele>882</ele>
        <time>2020-05-11T07:55:09.000Z</time>
      </trkpt>
      <trkpt lat="47.99824" lon="6.99694">
        <ele>885</ele>
        <time>2020-05-11T07:55:20.000Z</time>
      </trkpt>
      <trkpt lat="47.99827" lon="6.99681">
        <ele>889</ele>
        <time>2020-05-11T07:55:28.000Z</time>
      </trkpt>
      <trkpt lat="47.99824" lon="6.99667">
        <ele>892</ele>
        <time>2020-05-11T07:55:38.000Z</time>
      </trkpt>
      <trkpt lat="47.99819" lon="6.99656">
        <ele>897</ele>
        <time>2020-05-11T07:55:47.000Z</time>
      </trkpt>
      <trkpt lat="47.99814" lon="6.99643">
        <ele>897</ele>
        <time>2020-05-11T07:55:58.000Z</time>
      </trkpt>
      <trkpt lat="47.99809" lon="6.9963">
        <ele>898</ele>
        <time>2020-05-11T07:56:09.000Z</time>
      </trkpt>
      <trkpt lat="47.99805" lon="6.99618">
        <ele>899</ele>
        <time>2020-05-11T07:56:20.000Z</time>
      </trkpt>
      <trkpt lat="47.99805" lon="6.99604">
        <ele>900</ele>
        <time>2020-05-11T07:56:28.000Z</time>
      </trkpt>
      <trkpt lat="47.99806" lon="6.9959">
        <ele>902</ele>
        <time>2020-05-11T07:56:39.000Z</time>
      </trkpt>
      <trkpt lat="47.99805" lon="6.99576">
        <ele>912</ele>
        <time>2020-05-11T07:56:49.000Z</time>
      </trkpt>
      <trkpt lat="47.99802" lon="6.99562">
        <ele>912</ele>
        <time>2020-05-11T07:56:59.000Z</time>
      </trkpt>
      <trkpt lat="47.99798" lon="6.99549">
        <ele>913</ele>
        <time>2020-05-11T07:57:16.000Z</time>
      </trkpt>
      <trkpt lat="47.99796" lon="6.99535">
        <ele>915</ele>
        <time>2020-05-11T07:57:27.000Z</time>
      </trkpt>
      <trkpt lat="47.99795" lon="6.99521">
        <ele>916</ele>
        <time>2020-05-11T07:57:37.000Z</time>
      </trkpt>
      <trkpt lat="47.99788" lon="6.99511">
        <ele>916</ele>
        <time>2020-05-11T07:57:52.000Z</time>
      </trkpt>
      <trkpt lat="47.9978" lon="6.99505">
        <ele>915</ele>
        <time>2020-05-11T07:58:02.000Z</time>
      </trkpt>
      <trkpt lat="47.99776" lon="6.99492">
        <ele>927</ele>
        <time>2020-05-11T07:58:16.000Z</time>
      </trkpt>
      <trkpt lat="47.99773" lon="6.99479">
        <ele>929</ele>
        <time>2020-05-11T07:58:24.000Z</time>
      </trkpt>
      <trkpt lat="47.99769" lon="6.99466">
        <ele>930</ele>
        <time>2020-05-11T07:58:35.000Z</time>
      </trkpt>
      <trkpt lat="47.99767" lon="6.99453">
        <ele>933</ele>
        <time>2020-05-11T07:58:42.000Z</time>
      </trkpt>
      <trkpt lat="47.99767" lon="6.99439">
        <ele>934</ele>
        <time>2020-05-11T07:58:51.000Z</time>
      </trkpt>
      <trkpt lat="47.99767" lon="6.99426">
        <ele>936</ele>
        <time>2020-05-11T07:59:01.000Z</time>
      </trkpt>
      <trkpt lat="47.99768" lon="6.99412">
        <ele>947</ele>
        <time>2020-05-11T07:59:11.000Z</time>
      </trkpt>
      <trkpt lat="47.99765" lon="6.99399">
        <ele>949</ele>
        <time>2020-05-11T07:59:22.000Z</time>
      </trkpt>
      <trkpt lat="47.9976" lon="6.99388">
        <ele>952</ele>
        <time>2020-05-11T07:59:31.000Z</time>
      </trkpt>
      <trkpt lat="47.99754" lon="6.99377">
        <ele>954</ele>
        <time>2020-05-11T07:59:41.000Z</time>
      </trkpt>
      <trkpt lat="47.99746" lon="6.99368">
        <ele>942</ele>
        <time>2020-05-11T07:59:49.000Z</time>
      </trkpt>
      <trkpt lat="47.99737" lon="6.99364">
        <ele>942</ele>
        <time>2020-05-11T07:59:57.000Z</time>
      </trkpt>
      <trkpt lat="47.99729" lon="6.99359">
        <ele>941</ele>
        <time>2020-05-11T08:00:06.000Z</time>
      </trkpt>
      <trkpt lat="47.9972" lon="6.99353">
        <ele>940</ele>
        <time>2020-05-11T08:00:14.000Z</time>
      </trkpt>
      <trkpt lat="47.99713" lon="6.99344">
        <ele>939</ele>
        <time>2020-05-11T08:00:24.000Z</time>
      </trkpt>
      <trkpt lat="47.99706" lon="6.99335">
        <ele>938</ele>
        <time>2020-05-11T08:00:31.000Z</time>
      </trkpt>
      <trkpt lat="47.99698" lon="6.99327">
        <ele>951</ele>
        <time>2020-05-11T08:00:41.000Z</time>
      </trkpt>
      <trkpt lat="47.99691" lon="6.99319">
        <ele>950</ele>
        <time>2020-05-11T08:00:52.000Z</time>
      </trkpt>
      <trkpt lat="47.99685" lon="6.99308">
        <ele>951</ele>
        <time>2020-05-11T08:01:00.000Z</time>
      </trkpt>
      <trkpt lat="47.99679" lon="6.99297">
        <ele>953</ele>
        <time>2020-05-11T08:01:11.000Z</time>
      </trkpt>
      <trkpt lat="47.99679" lon="6.99283">
        <ele>956</ele>
        <time>2020-05-11T08:01:40.000Z</time>
      </trkpt>
      <trkpt lat="47.9968" lon="6.99269">
        <ele>958</ele>
        <time>2020-05-11T08:02:13.000Z</time>
      </trkpt>
      <trkpt lat="47.99672" lon="6.99262">
        <ele>958</ele>
        <time>2020-05-11T08:02:25.000Z</time>
      </trkpt>
      <trkpt lat="47.99665" lon="6.99254">
        <ele>954</ele>
        <time>2020-05-11T08:02:36.000Z</time>
      </trkpt>
      <trkpt lat="47.99658" lon="6.99244">
        <ele>959</ele>
        <time>2020-05-11T08:02:46.000Z</time>
      </trkpt>
      <trkpt lat="47.99653" lon="6.99233">
        <ele>960</ele>
        <time>2020-05-11T08:02:58.000Z</time>
      </trkpt>
      <trkpt lat="47.99645" lon="6.99224">
        <ele>961</ele>
        <time>2020-05-11T08:03:11.000Z</time>
      </trkpt>
      <trkpt lat="47.99639" lon="6.99214">
        <ele>962</ele>
        <time>2020-05-11T08:03:22.000Z</time>
      </trkpt>
      <trkpt lat="47.99631" lon="6.99208">
        <ele>962</ele>
        <time>2020-05-11T08:03:32.999Z</time>
      </trkpt>
      <trkpt lat="47.99623" lon="6.99201">
        <ele>962</ele>
        <time>2020-05-11T08:03:46.999Z</time>
      </trkpt>
      <trkpt lat="47.99629" lon="6.99212">
        <ele>961</ele>
        <time>2020-05-11T08:04:33.999Z</time>
      </trkpt>
      <trkpt lat="47.99637" lon="6.99216">
        <ele>961</ele>
        <time>2020-05-11T08:04:45.999Z</time>
      </trkpt>
      <trkpt lat="47.99644" lon="6.99226">
        <ele>960</ele>
        <time>2020-05-11T08:05:07.999Z</time>
      </trkpt>
      <trkpt lat="47.99653" lon="6.99229">
        <ele>960</ele>
        <time>2020-05-11T08:05:33.999Z</time>
      </trkpt>
      <trkpt lat="47.99662" lon="6.99225">
        <ele>961</ele>
        <time>2020-05-11T08:05:48.999Z</time>
      </trkpt>
      <trkpt lat="47.99671" lon="6.99221">
        <ele>977</ele>
        <time>2020-05-11T08:06:00.999Z</time>
      </trkpt>
      <trkpt lat="47.99676" lon="6.99208">
        <ele>981</ele>
        <time>2020-05-11T08:06:58.999Z</time>
      </trkpt>
      <trkpt lat="47.99674" lon="6.99195">
        <ele>984</ele>
        <time>2020-05-11T08:07:14.999Z</time>
      </trkpt>
      <trkpt lat="47.99683" lon="6.99196">
        <ele>984</ele>
        <time>2020-05-11T08:07:39.999Z</time>
      </trkpt>
      <trkpt lat="47.99692" lon="6.99197">
        <ele>985</ele>
        <time>2020-05-11T08:07:56.999Z</time>
      </trkpt>
      <trkpt lat="47.99701" lon="6.99197">
        <ele>985</ele>
        <time>2020-05-11T08:08:08.999Z</time>
      </trkpt>
      <trkpt lat="47.99711" lon="6.99199">
        <ele>986</ele>
        <time>2020-05-11T08:08:18.999Z</time>
      </trkpt>
      <trkpt lat="47.9972" lon="6.99204">
        <ele>987</ele>
        <time>2020-05-11T08:08:33.999Z</time>
      </trkpt>
      <trkpt lat="47.99728" lon="6.99211">
        <ele>987</ele>
        <time>2020-05-11T08:08:46.999Z</time>
      </trkpt>
      <trkpt lat="47.99736" lon="6.99218">
        <ele>986</ele>
        <time>2020-05-11T08:08:52.999Z</time>
      </trkpt>
      <trkpt lat="47.99744" lon="6.99226">
        <ele>986</ele>
        <time>2020-05-11T08:09:00.999Z</time>
      </trkpt>
      <trkpt lat="47.99752" lon="6.99235">
        <ele>991</ele>
        <time>2020-05-11T08:09:11.999Z</time>
      </trkpt>
      <trkpt lat="47.99761" lon="6.99238">
        <ele>992</ele>
        <time>2020-05-11T08:09:21.999Z</time>
      </trkpt>
      <trkpt lat="47.9977" lon="6.99237">
        <ele>993</ele>
        <time>2020-05-11T08:09:35.999Z</time>
      </trkpt>
      <trkpt lat="47.99779" lon="6.99244">
        <ele>994</ele>
        <time>2020-05-11T08:09:52.999Z</time>
      </trkpt>
      <trkpt lat="47.99788" lon="6.99245">
        <ele>994</ele>
        <time>2020-05-11T08:10:02.999Z</time>
      </trkpt>
      <trkpt lat="47.99797" lon="6.99253">
        <ele>984</ele>
        <time>2020-05-11T08:10:12.999Z</time>
      </trkpt>
      <trkpt lat="47.99806" lon="6.99257">
        <ele>985</ele>
        <time>2020-05-11T08:10:20.999Z</time>
      </trkpt>
      <trkpt lat="47.99815" lon="6.99257">
        <ele>986</ele>
        <time>2020-05-11T08:10:40.999Z</time>
      </trkpt>
      <trkpt lat="47.99823" lon="6.99251">
        <ele>989</ele>
        <time>2020-05-11T08:11:10.999Z</time>
      </trkpt>
      <trkpt lat="47.9983" lon="6.99241">
        <ele>995</ele>
        <time>2020-05-11T08:11:20.999Z</time>
      </trkpt>
      <trkpt lat="47.99837" lon="6.99231">
        <ele>991</ele>
        <time>2020-05-11T08:11:34.999Z</time>
      </trkpt>
      <trkpt lat="47.99842" lon="6.9922">
        <ele>991</ele>
        <time>2020-05-11T08:11:49.999Z</time>
      </trkpt>
      <trkpt lat="47.99844" lon="6.99206">
        <ele>992</ele>
        <time>2020-05-11T08:12:11.999Z</time>
      </trkpt>
      <trkpt lat="47.99845" lon="6.99191">
        <ele>994</ele>
        <time>2020-05-11T08:12:22.999Z</time>
      </trkpt>
      <trkpt lat="47.99844" lon="6.99177">
        <ele>998</ele>
        <time>2020-05-11T08:12:32.999Z</time>
      </trkpt>
      <trkpt lat="47.99842" lon="6.99163">
        <ele>1006</ele>
        <time>2020-05-11T08:12:41.999Z</time>
      </trkpt>
      <trkpt lat="47.99838" lon="6.9915">
        <ele>1008</ele>
        <time>2020-05-11T08:12:56.999Z</time>
      </trkpt>
      <trkpt lat="47.99829" lon="6.99143">
        <ele>1012</ele>
        <time>2020-05-11T08:13:13.999Z</time>
      </trkpt>
      <trkpt lat="47.99823" lon="6.99133">
        <ele>1014</ele>
        <time>2020-05-11T08:13:26.999Z</time>
      </trkpt>
      <trkpt lat="47.9982" lon="6.9912">
        <ele>1017</ele>
        <time>2020-05-11T08:13:48.999Z</time>
      </trkpt>
      <trkpt lat="47.99813" lon="6.99111">
        <ele>1018</ele>
        <time>2020-05-11T08:14:05.999Z</time>
      </trkpt>
      <trkpt lat="47.99805" lon="6.99104">
        <ele>1019</ele>
        <time>2020-05-11T08:14:17.999Z</time>
      </trkpt>
      <trkpt lat="47.99795" lon="6.99098">
        <ele>1019</ele>
        <time>2020-05-11T08:14:27.999Z</time>
      </trkpt>
      <trkpt lat="47.9978" lon="6.99091">
        <ele>1019</ele>
        <time>2020-05-11T08:14:32.999Z</time>
      </trkpt>
      <trkpt lat="47.99771" lon="6.99085">
        <ele>1020</ele>
        <time>2020-05-11T08:14:37.999Z</time>
      </trkpt>
      <trkpt lat="47.99762" lon="6.99082">
        <ele>1030</ele>
        <time>2020-05-11T08:14:46.999Z</time>
      </trkpt>
      <trkpt lat="47.99755" lon="6.99072">
        <ele>1030</ele>
        <time>2020-05-11T08:14:57.999Z</time>
      </trkpt>
      <trkpt lat="47.99747" lon="6.99063">
        <ele>1031</ele>
        <time>2020-05-11T08:15:04.999Z</time>
      </trkpt>
      <trkpt lat="47.99738" lon="6.99058">
        <ele>1032</ele>
        <time>2020-05-11T08:15:17.999Z</time>
      </trkpt>
      <trkpt lat="47.99729" lon="6.99055">
        <ele>1033</ele>
        <time>2020-05-11T08:15:27.999Z</time>
      </trkpt>
      <trkpt lat="47.99721" lon="6.99047">
        <ele>1035</ele>
        <time>2020-05-11T08:15:41.999Z</time>
      </trkpt>
      <trkpt lat="47.99712" lon="6.99046">
        <ele>1035</ele>
        <time>2020-05-11T08:15:47.999Z</time>
      </trkpt>
      <trkpt lat="47.99702" lon="6.99045">
        <ele>1035</ele>
        <time>2020-05-11T08:15:52.999Z</time>
      </trkpt>
      <trkpt lat="47.99693" lon="6.9904">
        <ele>1036</ele>
        <time>2020-05-11T08:16:00.999Z</time>
      </trkpt>
      <trkpt lat="47.99684" lon="6.99036">
        <ele>1037</ele>
        <time>2020-05-11T08:16:11.999Z</time>
      </trkpt>
      <trkpt lat="47.99675" lon="6.9904">
        <ele>1036</ele>
        <time>2020-05-11T08:16:35.999Z</time>
      </trkpt>
      <trkpt lat="47.99668" lon="6.99031">
        <ele>1039</ele>
        <time>2020-05-11T08:16:54.999Z</time>
      </trkpt>
      <trkpt lat="47.99659" lon="6.99027">
        <ele>1036</ele>
        <time>2020-05-11T08:17:03.999Z</time>
      </trkpt>
      <trkpt lat="47.99651" lon="6.99021">
        <ele>1037</ele>
        <time>2020-05-11T08:17:09.999Z</time>
      </trkpt>
      <trkpt lat="47.99641" lon="6.99016">
        <ele>1036</ele>
        <time>2020-05-11T08:17:17.999Z</time>
      </trkpt>
      <trkpt lat="47.99633" lon="6.99009">
        <ele>1036</ele>
        <time>2020-05-11T08:17:30.999Z</time>
      </trkpt>
      <trkpt lat="47.99626" lon="6.98999">
        <ele>1052</ele>
        <time>2020-05-11T08:17:42.999Z</time>
      </trkpt>
      <trkpt lat="47.99618" lon="6.98992">
        <ele>1052</ele>
        <time>2020-05-11T08:17:55.999Z</time>
      </trkpt>
      <trkpt lat="47.99611" lon="6.98983">
        <ele>1052</ele>
        <time>2020-05-11T08:18:08.999Z</time>
      </trkpt>
      <trkpt lat="47.99603" lon="6.98978">
        <ele>1051</ele>
        <time>2020-05-11T08:18:22.999Z</time>
      </trkpt>
      <trkpt lat="47.99587" lon="6.98977">
        <ele>1050</ele>
        <time>2020-05-11T08:18:47.999Z</time>
      </trkpt>
      <trkpt lat="47.99577" lon="6.98977">
        <ele>1042</ele>
        <time>2020-05-11T08:18:59.999Z</time>
      </trkpt>
      <trkpt lat="47.99569" lon="6.9897">
        <ele>1042</ele>
        <time>2020-05-11T08:19:07.999Z</time>
      </trkpt>
      <trkpt lat="47.9956" lon="6.98964">
        <ele>1043</ele>
        <time>2020-05-11T08:19:14.999Z</time>
      </trkpt>
      <trkpt lat="47.99552" lon="6.98957">
        <ele>1043</ele>
        <time>2020-05-11T08:19:21.999Z</time>
      </trkpt>
      <trkpt lat="47.99546" lon="6.98945">
        <ele>1044</ele>
        <time>2020-05-11T08:19:30.999Z</time>
      </trkpt>
      <trkpt lat="47.99539" lon="6.98934">
        <ele>1044</ele>
        <time>2020-05-11T08:19:39.999Z</time>
      </trkpt>
      <trkpt lat="47.99529" lon="6.98931">
        <ele>1043</ele>
        <time>2020-05-11T08:19:44.999Z</time>
      </trkpt>
      <trkpt lat="47.9952" lon="6.98925">
        <ele>1043</ele>
        <time>2020-05-11T08:19:56.999Z</time>
      </trkpt>
      <trkpt lat="47.99513" lon="6.98916">
        <ele>1053</ele>
        <time>2020-05-11T08:20:09.999Z</time>
      </trkpt>
      <trkpt lat="47.99505" lon="6.98909">
        <ele>1051</ele>
        <time>2020-05-11T08:20:35.999Z</time>
      </trkpt>
      <trkpt lat="47.99515" lon="6.9891">
        <ele>1054</ele>
        <time>2020-05-11T08:21:50.999Z</time>
      </trkpt>
      <trkpt lat="47.99524" lon="6.98914">
        <ele>1057</ele>
        <time>2020-05-11T08:22:09.999Z</time>
      </trkpt>
      <trkpt lat="47.99533" lon="6.98919">
        <ele>1044</ele>
        <time>2020-05-11T08:22:21.999Z</time>
      </trkpt>
      <trkpt lat="47.99542" lon="6.98923">
        <ele>1045</ele>
        <time>2020-05-11T08:22:38.999Z</time>
      </trkpt>
      <trkpt lat="47.99551" lon="6.98926">
        <ele>1046</ele>
        <time>2020-05-11T08:22:52.999Z</time>
      </trkpt>
      <trkpt lat="47.9956" lon="6.98931">
        <ele>1048</ele>
        <time>2020-05-11T08:22:57.999Z</time>
      </trkpt>
      <trkpt lat="47.9957" lon="6.98934">
        <ele>1049</ele>
        <time>2020-05-11T08:23:04.999Z</time>
      </trkpt>
      <trkpt lat="47.99579" lon="6.98938">
        <ele>1049</ele>
        <time>2020-05-11T08:23:11.999Z</time>
      </trkpt>
      <trkpt lat="47.99588" lon="6.98939">
        <ele>1057</ele>
        <time>2020-05-11T08:23:21.999Z</time>
      </trkpt>
      <trkpt lat="47.99597" lon="6.98936">
        <ele>1057</ele>
        <time>2020-05-11T08:23:38.999Z</time>
      </trkpt>
      <trkpt lat="47.99605" lon="6.98929">
        <ele>1058</ele>
        <time>2020-05-11T08:24:05.999Z</time>
      </trkpt>
      <trkpt lat="47.99615" lon="6.98926">
        <ele>1058</ele>
        <time>2020-05-11T08:24:12.999Z</time>
      </trkpt>
      <trkpt lat="47.99624" lon="6.98925">
        <ele>1059</ele>
        <time>2020-05-11T08:24:25.999Z</time>
      </trkpt>
      <trkpt lat="47.99634" lon="6.98924">
        <ele>1061</ele>
        <time>2020-05-11T08:24:34.999Z</time>
      </trkpt>
      <trkpt lat="47.99643" lon="6.98922">
        <ele>1063</ele>
        <time>2020-05-11T08:24:39.999Z</time>
      </trkpt>
      <trkpt lat="47.99652" lon="6.98916">
        <ele>1075</ele>
        <time>2020-05-11T08:24:47.999Z</time>
      </trkpt>
      <trkpt lat="47.99657" lon="6.98904">
        <ele>1076</ele>
        <time>2020-05-11T08:24:59.999Z</time>
      </trkpt>
      <trkpt lat="47.99656" lon="6.9889">
        <ele>1079</ele>
        <time>2020-05-11T08:25:07.999Z</time>
      </trkpt>
      <trkpt lat="47.99651" lon="6.98879">
        <ele>1080</ele>
        <time>2020-05-11T08:25:22.999Z</time>
      </trkpt>
      <trkpt lat="47.99644" lon="6.98869">
        <ele>1082</ele>
        <time>2020-05-11T08:25:35.999Z</time>
      </trkpt>
      <trkpt lat="47.99639" lon="6.98857">
        <ele>1084</ele>
        <time>2020-05-11T08:25:47.999Z</time>
      </trkpt>
      <trkpt lat="47.9963" lon="6.9885">
        <ele>1083</ele>
        <time>2020-05-11T08:26:00.999Z</time>
      </trkpt>
      <trkpt lat="47.99621" lon="6.98847">
        <ele>1082</ele>
        <time>2020-05-11T08:26:07.999Z</time>
      </trkpt>
      <trkpt lat="47.99611" lon="6.98848">
        <ele>1081</ele>
        <time>2020-05-11T08:26:14.999Z</time>
      </trkpt>
      <trkpt lat="47.99602" lon="6.98847">
        <ele>1081</ele>
        <time>2020-05-11T08:26:23.999Z</time>
      </trkpt>
      <trkpt lat="47.99593" lon="6.98845">
        <ele>1081</ele>
        <time>2020-05-11T08:26:32.999Z</time>
      </trkpt>
      <trkpt lat="47.99585" lon="6.98839">
        <ele>1082</ele>
        <time>2020-05-11T08:26:46.999Z</time>
      </trkpt>
      <trkpt lat="47.9958" lon="6.98827">
        <ele>1085</ele>
        <time>2020-05-11T08:27:05.999Z</time>
      </trkpt>
      <trkpt lat="47.99575" lon="6.98816">
        <ele>1087</ele>
        <time>2020-05-11T08:27:19.999Z</time>
      </trkpt>
      <trkpt lat="47.9957" lon="6.98803">
        <ele>1089</ele>
        <time>2020-05-11T08:27:32.999Z</time>
      </trkpt>
      <trkpt lat="47.99565" lon="6.98792">
        <ele>1091</ele>
        <time>2020-05-11T08:27:42.999Z</time>
      </trkpt>
      <trkpt lat="47.99559" lon="6.98781">
        <ele>1093</ele>
        <time>2020-05-11T08:27:55.999Z</time>
      </trkpt>
      <trkpt lat="47.99552" lon="6.98772">
        <ele>1093</ele>
        <time>2020-05-11T08:28:12.000Z</time>
      </trkpt>
      <trkpt lat="47.99547" lon="6.98761">
        <ele>1094</ele>
        <time>2020-05-11T08:28:29.000Z</time>
      </trkpt>
      <trkpt lat="47.99544" lon="6.98747">
        <ele>1109</ele>
        <time>2020-05-11T08:28:48.000Z</time>
      </trkpt>
      <trkpt lat="47.99541" lon="6.98734">
        <ele>1110</ele>
        <time>2020-05-11T08:29:04.000Z</time>
      </trkpt>
      <trkpt lat="47.99538" lon="6.98721">
        <ele>1111</ele>
        <time>2020-05-11T08:29:21.000Z</time>
      </trkpt>
      <trkpt lat="47.99533" lon="6.98708">
        <ele>1113</ele>
        <time>2020-05-11T08:29:36.000Z</time>
      </trkpt>
      <trkpt lat="47.99528" lon="6.98696">
        <ele>1114</ele>
        <time>2020-05-11T08:29:50.000Z</time>
      </trkpt>
      <trkpt lat="47.99521" lon="6.98687">
        <ele>1115</ele>
        <time>2020-05-11T08:30:11.000Z</time>
      </trkpt>
      <trkpt lat="47.99517" lon="6.98675">
        <ele>1116</ele>
        <time>2020-05-11T08:30:29.000Z</time>
      </trkpt>
      <trkpt lat="47.99509" lon="6.98668">
        <ele>1117</ele>
        <time>2020-05-11T08:30:48.000Z</time>
      </trkpt>
      <trkpt lat="47.99503" lon="6.98656">
        <ele>1124</ele>
        <time>2020-05-11T08:31:08.000Z</time>
      </trkpt>
      <trkpt lat="47.99495" lon="6.9865">
        <ele>1121</ele>
        <time>2020-05-11T08:31:17.000Z</time>
      </trkpt>
      <trkpt lat="47.99487" lon="6.98642">
        <ele>1122</ele>
        <time>2020-05-11T08:31:29.000Z</time>
      </trkpt>
      <trkpt lat="47.99479" lon="6.98634">
        <ele>1123</ele>
        <time>2020-05-11T08:31:41.000Z</time>
      </trkpt>
      <trkpt lat="47.99471" lon="6.98625">
        <ele>1124</ele>
        <time>2020-05-11T08:31:50.000Z</time>
      </trkpt>
      <trkpt lat="47.99464" lon="6.98616">
        <ele>1125</ele>
        <time>2020-05-11T08:31:59.000Z</time>
      </trkpt>
      <trkpt lat="47.99455" lon="6.9861">
        <ele>1125</ele>
        <time>2020-05-11T08:32:09.000Z</time>
      </trkpt>
      <trkpt lat="47.99446" lon="6.98608">
        <ele>1125</ele>
        <time>2020-05-11T08:32:20.000Z</time>
      </trkpt>
      <trkpt lat="47.99436" lon="6.98603">
        <ele>1126</ele>
        <time>2020-05-11T08:32:32.000Z</time>
      </trkpt>
      <trkpt lat="47.99428" lon="6.98596">
        <ele>1127</ele>
        <time>2020-05-11T08:32:44.000Z</time>
      </trkpt>
      <trkpt lat="47.9942" lon="6.98588">
        <ele>1129</ele>
        <time>2020-05-11T08:32:58.000Z</time>
      </trkpt>
      <trkpt lat="47.99415" lon="6.98576">
        <ele>1131</ele>
        <time>2020-05-11T08:33:11.000Z</time>
      </trkpt>
      <trkpt lat="47.99426" lon="6.98576">
        <ele>1136</ele>
        <time>2020-05-11T08:35:05.000Z</time>
      </trkpt>
      <trkpt lat="47.99418" lon="6.98558">
        <ele>1141</ele>
        <time>2020-05-11T08:42:11.000Z</time>
      </trkpt>
      <trkpt lat="47.99426" lon="6.98566">
        <ele>1139</ele>
        <time>2020-05-11T08:43:31.000Z</time>
      </trkpt>
      <trkpt lat="47.99438" lon="6.98572">
        <ele>1140</ele>
        <time>2020-05-11T08:45:32.000Z</time>
      </trkpt>
      <trkpt lat="47.99425" lon="6.98567">
        <ele>1139</ele>
        <time>2020-05-11T08:46:04.000Z</time>
      </trkpt>
      <trkpt lat="47.9942" lon="6.9858">
        <ele>1133</ele>
        <time>2020-05-11T08:46:15.000Z</time>
      </trkpt>
      <trkpt lat="47.99417" lon="6.98567">
        <ele>1133</ele>
        <time>2020-05-11T08:47:13.000Z</time>
      </trkpt>
      <trkpt lat="47.99419" lon="6.98598">
        <ele>1127</ele>
        <time>2020-05-11T08:49:58.000Z</time>
      </trkpt>
      <trkpt lat="47.99424" lon="6.98582">
        <ele>1134</ele>
        <time>2020-05-11T08:50:05.000Z</time>
      </trkpt>
      <trkpt lat="47.99422" lon="6.98568">
        <ele>1138</ele>
        <time>2020-05-11T08:50:19.000Z</time>
      </trkpt>
      <trkpt lat="47.99413" lon="6.98573">
        <ele>1132</ele>
        <time>2020-05-11T08:51:10.000Z</time>
      </trkpt>
      <trkpt lat="47.99406" lon="6.98582">
        <ele>1131</ele>
        <time>2020-05-11T08:51:18.000Z</time>
      </trkpt>
      <trkpt lat="47.99396" lon="6.98583">
        <ele>1131</ele>
        <time>2020-05-11T08:51:27.000Z</time>
      </trkpt>
      <trkpt lat="47.99387" lon="6.98579">
        <ele>1131</ele>
        <time>2020-05-11T08:51:37.000Z</time>
      </trkpt>
      <trkpt lat="47.99377" lon="6.98578">
        <ele>1131</ele>
        <time>2020-05-11T08:51:47.000Z</time>
      </trkpt>
      <trkpt lat="47.99367" lon="6.98576">
        <ele>1130</ele>
        <time>2020-05-11T08:51:57.000Z</time>
      </trkpt>
      <trkpt lat="47.99358" lon="6.98572">
        <ele>1129</ele>
        <time>2020-05-11T08:52:03.000Z</time>
      </trkpt>
      <trkpt lat="47.99349" lon="6.9857">
        <ele>1128</ele>
        <time>2020-05-11T08:52:09.000Z</time>
      </trkpt>
      <trkpt lat="47.99356" lon="6.98561">
        <ele>1130</ele>
        <time>2020-05-11T08:52:24.000Z</time>
      </trkpt>
      <trkpt lat="47.99363" lon="6.98552">
        <ele>1132</ele>
        <time>2020-05-11T08:52:32.000Z</time>
      </trkpt>
      <trkpt lat="47.99364" lon="6.98538">
        <ele>1133</ele>
        <time>2020-05-11T08:52:44.000Z</time>
      </trkpt>
      <trkpt lat="47.99356" lon="6.98531">
        <ele>1133</ele>
        <time>2020-05-11T08:52:55.000Z</time>
      </trkpt>
      <trkpt lat="47.99347" lon="6.98525">
        <ele>1133</ele>
        <time>2020-05-11T08:53:06.000Z</time>
      </trkpt>
      <trkpt lat="47.99338" lon="6.98518">
        <ele>1133</ele>
        <time>2020-05-11T08:53:16.000Z</time>
      </trkpt>
      <trkpt lat="47.99331" lon="6.98509">
        <ele>1129</ele>
        <time>2020-05-11T08:53:24.000Z</time>
      </trkpt>
      <trkpt lat="47.99325" lon="6.98498">
        <ele>1134</ele>
        <time>2020-05-11T08:53:33.000Z</time>
      </trkpt>
      <trkpt lat="47.99319" lon="6.98488">
        <ele>1135</ele>
        <time>2020-05-11T08:53:40.000Z</time>
      </trkpt>
      <trkpt lat="47.99313" lon="6.98476">
        <ele>1136</ele>
        <time>2020-05-11T08:53:48.000Z</time>
      </trkpt>
      <trkpt lat="47.99307" lon="6.98465">
        <ele>1137</ele>
        <time>2020-05-11T08:53:57.000Z</time>
      </trkpt>
      <trkpt lat="47.99301" lon="6.98453">
        <ele>1138</ele>
        <time>2020-05-11T08:54:05.000Z</time>
      </trkpt>
      <trkpt lat="47.99295" lon="6.98442">
        <ele>1139</ele>
        <time>2020-05-11T08:54:13.000Z</time>
      </trkpt>
      <trkpt lat="47.99288" lon="6.98431">
        <ele>1139</ele>
        <time>2020-05-11T08:54:22.000Z</time>
      </trkpt>
      <trkpt lat="47.99281" lon="6.98423">
        <ele>1139</ele>
        <time>2020-05-11T08:54:33.000Z</time>
      </trkpt>
      <trkpt lat="47.99272" lon="6.98416">
        <ele>1150</ele>
        <time>2020-05-11T08:54:42.000Z</time>
      </trkpt>
      <trkpt lat="47.99263" lon="6.98414">
        <ele>1147</ele>
        <time>2020-05-11T08:54:51.999Z</time>
      </trkpt>
      <trkpt lat="47.99253" lon="6.98418">
        <ele>1140</ele>
        <time>2020-05-11T08:55:10.999Z</time>
      </trkpt>
      <trkpt lat="47.99244" lon="6.98422">
        <ele>1137</ele>
        <time>2020-05-11T08:55:17.999Z</time>
      </trkpt>
      <trkpt lat="47.9923" lon="6.98421">
        <ele>1135</ele>
        <time>2020-05-11T08:55:22.999Z</time>
      </trkpt>
      <trkpt lat="47.9922" lon="6.98424">
        <ele>1134</ele>
        <time>2020-05-11T08:55:30.999Z</time>
      </trkpt>
      <trkpt lat="47.99211" lon="6.98428">
        <ele>1133</ele>
        <time>2020-05-11T08:55:39.999Z</time>
      </trkpt>
      <trkpt lat="47.99201" lon="6.98431">
        <ele>1133</ele>
        <time>2020-05-11T08:55:49.999Z</time>
      </trkpt>
      <trkpt lat="47.99192" lon="6.98434">
        <ele>1133</ele>
        <time>2020-05-11T08:55:59.999Z</time>
      </trkpt>
      <trkpt lat="47.99183" lon="6.98432">
        <ele>1134</ele>
        <time>2020-05-11T08:56:07.999Z</time>
      </trkpt>
      <trkpt lat="47.99173" lon="6.98433">
        <ele>1135</ele>
        <time>2020-05-11T08:56:16.999Z</time>
      </trkpt>
      <trkpt lat="47.99164" lon="6.98432">
        <ele>1140</ele>
        <time>2020-05-11T08:56:25.999Z</time>
      </trkpt>
      <trkpt lat="47.99154" lon="6.98432">
        <ele>1140</ele>
        <time>2020-05-11T08:56:35.999Z</time>
      </trkpt>
      <trkpt lat="47.99144" lon="6.98434">
        <ele>1140</ele>
        <time>2020-05-11T08:56:44.999Z</time>
      </trkpt>
      <trkpt lat="47.99136" lon="6.98437">
        <ele>1140</ele>
        <time>2020-05-11T08:56:51.999Z</time>
      </trkpt>
      <trkpt lat="47.99126" lon="6.98441">
        <ele>1141</ele>
        <time>2020-05-11T08:56:59.999Z</time>
      </trkpt>
      <trkpt lat="47.99116" lon="6.98442">
        <ele>1142</ele>
        <time>2020-05-11T08:57:07.999Z</time>
      </trkpt>
      <trkpt lat="47.99107" lon="6.98442">
        <ele>1143</ele>
        <time>2020-05-11T08:57:16.999Z</time>
      </trkpt>
      <trkpt lat="47.99098" lon="6.98443">
        <ele>1145</ele>
        <time>2020-05-11T08:57:26.999Z</time>
      </trkpt>
      <trkpt lat="47.99089" lon="6.98447">
        <ele>1144</ele>
        <time>2020-05-11T08:57:36.999Z</time>
      </trkpt>
      <trkpt lat="47.9908" lon="6.98453">
        <ele>1156</ele>
        <time>2020-05-11T08:57:46.999Z</time>
      </trkpt>
      <trkpt lat="47.99072" lon="6.9846">
        <ele>1154</ele>
        <time>2020-05-11T08:57:57.999Z</time>
      </trkpt>
      <trkpt lat="47.99065" lon="6.98469">
        <ele>1153</ele>
        <time>2020-05-11T08:58:05.999Z</time>
      </trkpt>
      <trkpt lat="47.99057" lon="6.98477">
        <ele>1152</ele>
        <time>2020-05-11T08:58:13.999Z</time>
      </trkpt>
      <trkpt lat="47.99048" lon="6.98482">
        <ele>1154</ele>
        <time>2020-05-11T08:58:22.999Z</time>
      </trkpt>
      <trkpt lat="47.99039" lon="6.98488">
        <ele>1154</ele>
        <time>2020-05-11T08:58:31.999Z</time>
      </trkpt>
      <trkpt lat="47.9903" lon="6.98493">
        <ele>1155</ele>
        <time>2020-05-11T08:58:38.999Z</time>
      </trkpt>
      <trkpt lat="47.99022" lon="6.98501">
        <ele>1142</ele>
        <time>2020-05-11T08:58:48.999Z</time>
      </trkpt>
      <trkpt lat="47.99014" lon="6.98508">
        <ele>1144</ele>
        <time>2020-05-11T08:58:57.999Z</time>
      </trkpt>
      <trkpt lat="47.99005" lon="6.98512">
        <ele>1146</ele>
        <time>2020-05-11T08:59:07.999Z</time>
      </trkpt>
      <trkpt lat="47.98995" lon="6.9851">
        <ele>1149</ele>
        <time>2020-05-11T08:59:18.999Z</time>
      </trkpt>
      <trkpt lat="47.98986" lon="6.98508">
        <ele>1148</ele>
        <time>2020-05-11T08:59:27.999Z</time>
      </trkpt>
      <trkpt lat="47.98977" lon="6.98506">
        <ele>1147</ele>
        <time>2020-05-11T08:59:37.999Z</time>
      </trkpt>
      <trkpt lat="47.98968" lon="6.98502">
        <ele>1146</ele>
        <time>2020-05-11T08:59:45.999Z</time>
      </trkpt>
      <trkpt lat="47.98959" lon="6.98496">
        <ele>1164</ele>
        <time>2020-05-11T08:59:53.999Z</time>
      </trkpt>
      <trkpt lat="47.98951" lon="6.98491">
        <ele>1164</ele>
        <time>2020-05-11T09:00:03.999Z</time>
      </trkpt>
      <trkpt lat="47.98942" lon="6.98486">
        <ele>1164</ele>
        <time>2020-05-11T09:00:14.999Z</time>
      </trkpt>
      <trkpt lat="47.98933" lon="6.98481">
        <ele>1164</ele>
        <time>2020-05-11T09:00:23.999Z</time>
      </trkpt>
      <trkpt lat="47.98925" lon="6.98473">
        <ele>1165</ele>
        <time>2020-05-11T09:00:34.999Z</time>
      </trkpt>
      <trkpt lat="47.98917" lon="6.98463">
        <ele>1168</ele>
        <time>2020-05-11T09:00:45.999Z</time>
      </trkpt>
      <trkpt lat="47.9891" lon="6.98455">
        <ele>1166</ele>
        <time>2020-05-11T09:00:55.999Z</time>
      </trkpt>
      <trkpt lat="47.98903" lon="6.98446">
        <ele>1168</ele>
        <time>2020-05-11T09:01:04.999Z</time>
      </trkpt>
      <trkpt lat="47.98896" lon="6.98437">
        <ele>1170</ele>
        <time>2020-05-11T09:01:13.999Z</time>
      </trkpt>
      <trkpt lat="47.98887" lon="6.98429">
        <ele>1170</ele>
        <time>2020-05-11T09:01:23.999Z</time>
      </trkpt>
      <trkpt lat="47.9888" lon="6.98421">
        <ele>1169</ele>
        <time>2020-05-11T09:01:33.999Z</time>
      </trkpt>
      <trkpt lat="47.98874" lon="6.98411">
        <ele>1188</ele>
        <time>2020-05-11T09:02:24.999Z</time>
      </trkpt>
      <trkpt lat="47.98864" lon="6.98406">
        <ele>1186</ele>
        <time>2020-05-11T09:02:31.999Z</time>
      </trkpt>
      <trkpt lat="47.98856" lon="6.98402">
        <ele>1185</ele>
        <time>2020-05-11T09:02:37.999Z</time>
      </trkpt>
      <trkpt lat="47.98847" lon="6.98399">
        <ele>1184</ele>
        <time>2020-05-11T09:02:43.999Z</time>
      </trkpt>
      <trkpt lat="47.98838" lon="6.98396">
        <ele>1183</ele>
        <time>2020-05-11T09:02:53.999Z</time>
      </trkpt>
      <trkpt lat="47.9883" lon="6.98404">
        <ele>1175</ele>
        <time>2020-05-11T09:03:36.999Z</time>
      </trkpt>
      <trkpt lat="47.98835" lon="6.98394">
        <ele>1184</ele>
        <time>2020-05-11T09:04:00.999Z</time>
      </trkpt>
      <trkpt lat="47.98828" lon="6.98385">
        <ele>1181</ele>
        <time>2020-05-11T09:04:16.999Z</time>
      </trkpt>
      <trkpt lat="47.98819" lon="6.98381">
        <ele>1182</ele>
        <time>2020-05-11T09:04:23.999Z</time>
      </trkpt>
      <trkpt lat="47.98811" lon="6.98372">
        <ele>1183</ele>
        <time>2020-05-11T09:04:31.999Z</time>
      </trkpt>
      <trkpt lat="47.98803" lon="6.98364">
        <ele>1185</ele>
        <time>2020-05-11T09:04:49.999Z</time>
      </trkpt>
      <trkpt lat="47.98794" lon="6.98358">
        <ele>1185</ele>
        <time>2020-05-11T09:04:57.999Z</time>
      </trkpt>
      <trkpt lat="47.98786" lon="6.98353">
        <ele>1185</ele>
        <time>2020-05-11T09:05:08.999Z</time>
      </trkpt>
      <trkpt lat="47.98776" lon="6.98348">
        <ele>1186</ele>
        <time>2020-05-11T09:05:16.999Z</time>
      </trkpt>
      <trkpt lat="47.98766" lon="6.98346">
        <ele>1187</ele>
        <time>2020-05-11T09:05:25.999Z</time>
      </trkpt>
      <trkpt lat="47.98756" lon="6.98346">
        <ele>1188</ele>
        <time>2020-05-11T09:05:40.999Z</time>
      </trkpt>
      <trkpt lat="47.98748" lon="6.98338">
        <ele>1190</ele>
        <time>2020-05-11T09:05:53.999Z</time>
      </trkpt>
      <trkpt lat="47.9874" lon="6.98329">
        <ele>1195</ele>
        <time>2020-05-11T09:06:01.999Z</time>
      </trkpt>
      <trkpt lat="47.98732" lon="6.98321">
        <ele>1197</ele>
        <time>2020-05-11T09:06:12.999Z</time>
      </trkpt>
      <trkpt lat="47.98723" lon="6.98317">
        <ele>1197</ele>
        <time>2020-05-11T09:06:19.999Z</time>
      </trkpt>
      <trkpt lat="47.98714" lon="6.98315">
        <ele>1197</ele>
        <time>2020-05-11T09:06:29.999Z</time>
      </trkpt>
      <trkpt lat="47.98704" lon="6.98315">
        <ele>1196</ele>
        <time>2020-05-11T09:06:39.999Z</time>
      </trkpt>
      <trkpt lat="47.98695" lon="6.98314">
        <ele>1196</ele>
        <time>2020-05-11T09:06:49.999Z</time>
      </trkpt>
      <trkpt lat="47.98684" lon="6.98313">
        <ele>1195</ele>
        <time>2020-05-11T09:07:00.999Z</time>
      </trkpt>
      <trkpt lat="47.98675" lon="6.98313">
        <ele>1194</ele>
        <time>2020-05-11T09:07:11.999Z</time>
      </trkpt>
      <trkpt lat="47.98666" lon="6.9831">
        <ele>1192</ele>
        <time>2020-05-11T09:07:35.999Z</time>
      </trkpt>
      <trkpt lat="47.98657" lon="6.98306">
        <ele>1194</ele>
        <time>2020-05-11T09:07:44.999Z</time>
      </trkpt>
      <trkpt lat="47.98649" lon="6.983">
        <ele>1195</ele>
        <time>2020-05-11T09:07:54.999Z</time>
      </trkpt>
      <trkpt lat="47.98639" lon="6.98294">
        <ele>1196</ele>
        <time>2020-05-11T09:08:02.999Z</time>
      </trkpt>
      <trkpt lat="47.9863" lon="6.98292">
        <ele>1196</ele>
        <time>2020-05-11T09:08:09.999Z</time>
      </trkpt>
      <trkpt lat="47.9862" lon="6.98292">
        <ele>1197</ele>
        <time>2020-05-11T09:08:19.999Z</time>
      </trkpt>
      <trkpt lat="47.98611" lon="6.9829">
        <ele>1197</ele>
        <time>2020-05-11T09:08:27.999Z</time>
      </trkpt>
      <trkpt lat="47.98601" lon="6.98287">
        <ele>1198</ele>
        <time>2020-05-11T09:08:36.999Z</time>
      </trkpt>
      <trkpt lat="47.98591" lon="6.98285">
        <ele>1198</ele>
        <time>2020-05-11T09:08:45.999Z</time>
      </trkpt>
      <trkpt lat="47.98582" lon="6.98283">
        <ele>1202</ele>
        <time>2020-05-11T09:08:54.999Z</time>
      </trkpt>
      <trkpt lat="47.98572" lon="6.98285">
        <ele>1201</ele>
        <time>2020-05-11T09:09:02.999Z</time>
      </trkpt>
      <trkpt lat="47.98563" lon="6.98286">
        <ele>1201</ele>
        <time>2020-05-11T09:09:11.999Z</time>
      </trkpt>
      <trkpt lat="47.98554" lon="6.98286">
        <ele>1202</ele>
        <time>2020-05-11T09:09:20.999Z</time>
      </trkpt>
      <trkpt lat="47.98544" lon="6.98285">
        <ele>1202</ele>
        <time>2020-05-11T09:09:30.999Z</time>
      </trkpt>
      <trkpt lat="47.98535" lon="6.98283">
        <ele>1203</ele>
        <time>2020-05-11T09:09:39.999Z</time>
      </trkpt>
      <trkpt lat="47.98526" lon="6.9828">
        <ele>1203</ele>
        <time>2020-05-11T09:09:48.999Z</time>
      </trkpt>
      <trkpt lat="47.98517" lon="6.98281">
        <ele>1204</ele>
        <time>2020-05-11T09:09:57.999Z</time>
      </trkpt>
      <trkpt lat="47.98507" lon="6.98281">
        <ele>1204</ele>
        <time>2020-05-11T09:10:05.999Z</time>
      </trkpt>
      <trkpt lat="47.98498" lon="6.9828">
        <ele>1208</ele>
        <time>2020-05-11T09:10:13.999Z</time>
      </trkpt>
      <trkpt lat="47.98489" lon="6.98279">
        <ele>1208</ele>
        <time>2020-05-11T09:10:22.999Z</time>
      </trkpt>
      <trkpt lat="47.9848" lon="6.98278">
        <ele>1208</ele>
        <time>2020-05-11T09:10:31.999Z</time>
      </trkpt>
      <trkpt lat="47.9847" lon="6.98273">
        <ele>1208</ele>
        <time>2020-05-11T09:10:41.999Z</time>
      </trkpt>
      <trkpt lat="47.98462" lon="6.98268">
        <ele>1209</ele>
        <time>2020-05-11T09:10:50.999Z</time>
      </trkpt>
      <trkpt lat="47.98453" lon="6.98261">
        <ele>1209</ele>
        <time>2020-05-11T09:10:59.999Z</time>
      </trkpt>
      <trkpt lat="47.98445" lon="6.98255">
        <ele>1210</ele>
        <time>2020-05-11T09:11:08.999Z</time>
      </trkpt>
      <trkpt lat="47.98437" lon="6.98247">
        <ele>1213</ele>
        <time>2020-05-11T09:11:17.999Z</time>
      </trkpt>
      <trkpt lat="47.98431" lon="6.98237">
        <ele>1213</ele>
        <time>2020-05-11T09:11:25.999Z</time>
      </trkpt>
      <trkpt lat="47.98422" lon="6.98231">
        <ele>1213</ele>
        <time>2020-05-11T09:11:36.999Z</time>
      </trkpt>
      <trkpt lat="47.98413" lon="6.98237">
        <ele>1214</ele>
        <time>2020-05-11T09:11:45.999Z</time>
      </trkpt>
      <trkpt lat="47.98407" lon="6.98246">
        <ele>1214</ele>
        <time>2020-05-11T09:11:56.999Z</time>
      </trkpt>
      <trkpt lat="47.98398" lon="6.98252">
        <ele>1214</ele>
        <time>2020-05-11T09:12:08.999Z</time>
      </trkpt>
      <trkpt lat="47.98389" lon="6.98257">
        <ele>1214</ele>
        <time>2020-05-11T09:12:23.999Z</time>
      </trkpt>
      <trkpt lat="47.98381" lon="6.98265">
        <ele>1214</ele>
        <time>2020-05-11T09:12:34.999Z</time>
      </trkpt>
      <trkpt lat="47.98372" lon="6.98263">
        <ele>1215</ele>
        <time>2020-05-11T09:12:42.999Z</time>
      </trkpt>
      <trkpt lat="47.98364" lon="6.9825">
        <ele>1216</ele>
        <time>2020-05-11T09:14:22.999Z</time>
      </trkpt>
      <trkpt lat="47.98381" lon="6.98244">
        <ele>1215</ele>
        <time>2020-05-11T09:19:17.999Z</time>
      </trkpt>
      <trkpt lat="47.98365" lon="6.98257">
        <ele>1215</ele>
        <time>2020-05-11T09:19:22.999Z</time>
      </trkpt>
      <trkpt lat="47.98366" lon="6.98239">
        <ele>1216</ele>
        <time>2020-05-11T09:19:45.999Z</time>
      </trkpt>
      <trkpt lat="47.9836" lon="6.98256">
        <ele>1216</ele>
        <time>2020-05-11T09:20:00.999Z</time>
      </trkpt>
      <trkpt lat="47.98405" lon="6.98353">
        <ele>1203</ele>
        <time>2020-05-11T09:28:06.000Z</time>
      </trkpt>
      <trkpt lat="47.98387" lon="6.98345">
        <ele>1204</ele>
        <time>2020-05-11T09:28:12.000Z</time>
      </trkpt>
      <trkpt lat="47.98382" lon="6.98319">
        <ele>1213</ele>
        <time>2020-05-11T09:28:28.000Z</time>
      </trkpt>
      <trkpt lat="47.98383" lon="6.98273">
        <ele>1214</ele>
        <time>2020-05-11T09:29:41.000Z</time>
      </trkpt>
      <trkpt lat="47.9837" lon="6.98279">
        <ele>1215</ele>
        <time>2020-05-11T09:29:47.000Z</time>
      </trkpt>
      <trkpt lat="47.98358" lon="6.9828">
        <ele>1215</ele>
        <time>2020-05-11T09:29:52.000Z</time>
      </trkpt>
      <trkpt lat="47.9837" lon="6.98258">
        <ele>1215</ele>
        <time>2020-05-11T09:31:13.000Z</time>
      </trkpt>
      <trkpt lat="47.9836" lon="6.98255">
        <ele>1216</ele>
        <time>2020-05-11T09:32:07.000Z</time>
      </trkpt>
      <trkpt lat="47.98371" lon="6.98239">
        <ele>1216</ele>
        <time>2020-05-11T09:34:22.000Z</time>
      </trkpt>
      <trkpt lat="47.98362" lon="6.98244">
        <ele>1216</ele>
        <time>2020-05-11T09:35:12.000Z</time>
      </trkpt>
      <trkpt lat="47.98363" lon="6.98258">
        <ele>1216</ele>
        <time>2020-05-11T09:37:54.000Z</time>
      </trkpt>
      <trkpt lat="47.98372" lon="6.98259">
        <ele>1215</ele>
        <time>2020-05-11T09:38:23.000Z</time>
      </trkpt>
      <trkpt lat="47.98363" lon="6.98259">
        <ele>1216</ele>
        <time>2020-05-11T09:39:10.000Z</time>
      </trkpt>
      <trkpt lat="47.98356" lon="6.98248">
        <ele>1217</ele>
        <time>2020-05-11T09:41:02.000Z</time>
      </trkpt>
      <trkpt lat="47.98373" lon="6.9825">
        <ele>1215</ele>
        <time>2020-05-11T09:41:53.000Z</time>
      </trkpt>
      <trkpt lat="47.98361" lon="6.98276">
        <ele>1215</ele>
        <time>2020-05-11T09:42:51.000Z</time>
      </trkpt>
      <trkpt lat="47.98369" lon="6.98268">
        <ele>1215</ele>
        <time>2020-05-11T09:44:10.000Z</time>
      </trkpt>
      <trkpt lat="47.98371" lon="6.98252">
        <ele>1215</ele>
        <time>2020-05-11T09:45:04.000Z</time>
      </trkpt>
      <trkpt lat="47.98368" lon="6.98267">
        <ele>1215</ele>
        <time>2020-05-11T09:48:01.000Z</time>
      </trkpt>
      <trkpt lat="47.98369" lon="6.98285">
        <ele>1214</ele>
        <time>2020-05-11T09:48:45.000Z</time>
      </trkpt>
      <trkpt lat="47.98367" lon="6.9827">
        <ele>1215</ele>
        <time>2020-05-11T09:50:02.000Z</time>
      </trkpt>
      <trkpt lat="47.9837" lon="6.98284">
        <ele>1214</ele>
        <time>2020-05-11T09:50:15.000Z</time>
      </trkpt>
      <trkpt lat="47.98369" lon="6.98271">
        <ele>1215</ele>
        <time>2020-05-11T09:57:32.999Z</time>
      </trkpt>
      <trkpt lat="47.98367" lon="6.98256">
        <ele>1215</ele>
        <time>2020-05-11T09:59:38.999Z</time>
      </trkpt>
      <trkpt lat="47.98366" lon="6.9823">
        <ele>1216</ele>
        <time>2020-05-11T10:05:02.999Z</time>
      </trkpt>
      <trkpt lat="47.98368" lon="6.98262">
        <ele>1215</ele>
        <time>2020-05-11T10:06:56.999Z</time>
      </trkpt>
      <trkpt lat="47.98372" lon="6.98275">
        <ele>1215</ele>
        <time>2020-05-11T10:07:38.999Z</time>
      </trkpt>
      <trkpt lat="47.98367" lon="6.98248">
        <ele>1216</ele>
        <time>2020-05-11T10:08:22.999Z</time>
      </trkpt>
      <trkpt lat="47.98368" lon="6.98264">
        <ele>1215</ele>
        <time>2020-05-11T10:15:47.999Z</time>
      </trkpt>
      <trkpt lat="47.98362" lon="6.98274">
        <ele>1215</ele>
        <time>2020-05-11T10:15:53.999Z</time>
      </trkpt>
      <trkpt lat="47.98354" lon="6.98284">
        <ele>1215</ele>
        <time>2020-05-11T10:16:01.999Z</time>
      </trkpt>
      <trkpt lat="47.98347" lon="6.98295">
        <ele>1215</ele>
        <time>2020-05-11T10:16:08.999Z</time>
      </trkpt>
      <trkpt lat="47.9834" lon="6.98305">
        <ele>1215</ele>
        <time>2020-05-11T10:16:15.999Z</time>
      </trkpt>
      <trkpt lat="47.98334" lon="6.98314">
        <ele>1215</ele>
        <time>2020-05-11T10:16:26.999Z</time>
      </trkpt>
      <trkpt lat="47.98325" lon="6.9832">
        <ele>1215</ele>
        <time>2020-05-11T10:16:35.999Z</time>
      </trkpt>
      <trkpt lat="47.98317" lon="6.98328">
        <ele>1215</ele>
        <time>2020-05-11T10:16:44.999Z</time>
      </trkpt>
      <trkpt lat="47.98309" lon="6.98335">
        <ele>1211</ele>
        <time>2020-05-11T10:16:51.999Z</time>
      </trkpt>
      <trkpt lat="47.983" lon="6.98339">
        <ele>1210</ele>
        <time>2020-05-11T10:16:59.999Z</time>
      </trkpt>
      <trkpt lat="47.9829" lon="6.98338">
        <ele>1210</ele>
        <time>2020-05-11T10:17:07.999Z</time>
      </trkpt>
      <trkpt lat="47.98281" lon="6.98342">
        <ele>1210</ele>
        <time>2020-05-11T10:17:15.999Z</time>
      </trkpt>
      <trkpt lat="47.98272" lon="6.98341">
        <ele>1211</ele>
        <time>2020-05-11T10:17:24.999Z</time>
      </trkpt>
      <trkpt lat="47.98263" lon="6.98346">
        <ele>1211</ele>
        <time>2020-05-11T10:17:36.000Z</time>
      </trkpt>
      <trkpt lat="47.98253" lon="6.98353">
        <ele>1211</ele>
        <time>2020-05-11T10:17:44.000Z</time>
      </trkpt>
      <trkpt lat="47.98244" lon="6.98358">
        <ele>1209</ele>
        <time>2020-05-11T10:17:52.000Z</time>
      </trkpt>
      <trkpt lat="47.98236" lon="6.98364">
        <ele>1208</ele>
        <time>2020-05-11T10:18:00.000Z</time>
      </trkpt>
      <trkpt lat="47.98227" lon="6.98369">
        <ele>1207</ele>
        <time>2020-05-11T10:18:09.000Z</time>
      </trkpt>
      <trkpt lat="47.98218" lon="6.98373">
        <ele>1207</ele>
        <time>2020-05-11T10:18:18.000Z</time>
      </trkpt>
      <trkpt lat="47.98209" lon="6.98376">
        <ele>1206</ele>
        <time>2020-05-11T10:18:27.000Z</time>
      </trkpt>
      <trkpt lat="47.98199" lon="6.98379">
        <ele>1206</ele>
        <time>2020-05-11T10:18:35.000Z</time>
      </trkpt>
      <trkpt lat="47.9819" lon="6.98382">
        <ele>1206</ele>
        <time>2020-05-11T10:18:42.000Z</time>
      </trkpt>
      <trkpt lat="47.98181" lon="6.98383">
        <ele>1205</ele>
        <time>2020-05-11T10:18:49.000Z</time>
      </trkpt>
      <trkpt lat="47.98172" lon="6.98386">
        <ele>1205</ele>
        <time>2020-05-11T10:18:57.000Z</time>
      </trkpt>
      <trkpt lat="47.98161" lon="6.98389">
        <ele>1200</ele>
        <time>2020-05-11T10:19:04.000Z</time>
      </trkpt>
      <trkpt lat="47.98152" lon="6.98393">
        <ele>1200</ele>
        <time>2020-05-11T10:19:11.000Z</time>
      </trkpt>
      <trkpt lat="47.98143" lon="6.98397">
        <ele>1200</ele>
        <time>2020-05-11T10:19:18.000Z</time>
      </trkpt>
      <trkpt lat="47.98135" lon="6.98403">
        <ele>1199</ele>
        <time>2020-05-11T10:19:25.000Z</time>
      </trkpt>
      <trkpt lat="47.98126" lon="6.98409">
        <ele>1198</ele>
        <time>2020-05-11T10:19:33.000Z</time>
      </trkpt>
      <trkpt lat="47.98116" lon="6.98412">
        <ele>1198</ele>
        <time>2020-05-11T10:19:41.000Z</time>
      </trkpt>
      <trkpt lat="47.98107" lon="6.98415">
        <ele>1197</ele>
        <time>2020-05-11T10:19:48.000Z</time>
      </trkpt>
      <trkpt lat="47.98098" lon="6.9842">
        <ele>1195</ele>
        <time>2020-05-11T10:19:56.000Z</time>
      </trkpt>
      <trkpt lat="47.9809" lon="6.98427">
        <ele>1194</ele>
        <time>2020-05-11T10:20:04.000Z</time>
      </trkpt>
      <trkpt lat="47.98081" lon="6.98433">
        <ele>1191</ele>
        <time>2020-05-11T10:20:11.000Z</time>
      </trkpt>
      <trkpt lat="47.98073" lon="6.98437">
        <ele>1191</ele>
        <time>2020-05-11T10:20:18.000Z</time>
      </trkpt>
      <trkpt lat="47.98063" lon="6.98443">
        <ele>1190</ele>
        <time>2020-05-11T10:20:28.000Z</time>
      </trkpt>
      <trkpt lat="47.98055" lon="6.98449">
        <ele>1190</ele>
        <time>2020-05-11T10:20:36.000Z</time>
      </trkpt>
      <trkpt lat="47.98046" lon="6.98457">
        <ele>1190</ele>
        <time>2020-05-11T10:20:44.000Z</time>
      </trkpt>
      <trkpt lat="47.98039" lon="6.98468">
        <ele>1189</ele>
        <time>2020-05-11T10:20:52.000Z</time>
      </trkpt>
      <trkpt lat="47.98035" lon="6.9848">
        <ele>1189</ele>
        <time>2020-05-11T10:21:00.000Z</time>
      </trkpt>
      <trkpt lat="47.9803" lon="6.98492">
        <ele>1189</ele>
        <time>2020-05-11T10:21:09.000Z</time>
      </trkpt>
      <trkpt lat="47.98027" lon="6.98505">
        <ele>1187</ele>
        <time>2020-05-11T10:21:16.000Z</time>
      </trkpt>
      <trkpt lat="47.98024" lon="6.98519">
        <ele>1186</ele>
        <time>2020-05-11T10:21:22.000Z</time>
      </trkpt>
      <trkpt lat="47.98022" lon="6.98532">
        <ele>1186</ele>
        <time>2020-05-11T10:21:30.000Z</time>
      </trkpt>
      <trkpt lat="47.98019" lon="6.98545">
        <ele>1185</ele>
        <time>2020-05-11T10:21:38.000Z</time>
      </trkpt>
      <trkpt lat="47.98016" lon="6.9856">
        <ele>1184</ele>
        <time>2020-05-11T10:21:46.000Z</time>
      </trkpt>
      <trkpt lat="47.98014" lon="6.98575">
        <ele>1183</ele>
        <time>2020-05-11T10:21:54.000Z</time>
      </trkpt>
      <trkpt lat="47.98011" lon="6.98588">
        <ele>1179</ele>
        <time>2020-05-11T10:22:01.000Z</time>
      </trkpt>
      <trkpt lat="47.98007" lon="6.98602">
        <ele>1178</ele>
        <time>2020-05-11T10:22:09.000Z</time>
      </trkpt>
      <trkpt lat="47.98002" lon="6.98616">
        <ele>1177</ele>
        <time>2020-05-11T10:22:17.000Z</time>
      </trkpt>
      <trkpt lat="47.97996" lon="6.98628">
        <ele>1182</ele>
        <time>2020-05-11T10:22:24.000Z</time>
      </trkpt>
      <trkpt lat="47.9799" lon="6.9864">
        <ele>1182</ele>
        <time>2020-05-11T10:22:32.000Z</time>
      </trkpt>
      <trkpt lat="47.97985" lon="6.98653">
        <ele>1181</ele>
        <time>2020-05-11T10:22:39.000Z</time>
      </trkpt>
      <trkpt lat="47.9798" lon="6.98665">
        <ele>1181</ele>
        <time>2020-05-11T10:22:46.000Z</time>
      </trkpt>
      <trkpt lat="47.97976" lon="6.98677">
        <ele>1176</ele>
        <time>2020-05-11T10:22:53.000Z</time>
      </trkpt>
      <trkpt lat="47.97973" lon="6.98691">
        <ele>1176</ele>
        <time>2020-05-11T10:23:00.000Z</time>
      </trkpt>
      <trkpt lat="47.97967" lon="6.98703">
        <ele>1175</ele>
        <time>2020-05-11T10:23:09.000Z</time>
      </trkpt>
      <trkpt lat="47.9796" lon="6.98714">
        <ele>1175</ele>
        <time>2020-05-11T10:23:17.000Z</time>
      </trkpt>
      <trkpt lat="47.97954" lon="6.98724">
        <ele>1175</ele>
        <time>2020-05-11T10:23:25.000Z</time>
      </trkpt>
      <trkpt lat="47.9795" lon="6.98737">
        <ele>1175</ele>
        <time>2020-05-11T10:23:40.000Z</time>
      </trkpt>
      <trkpt lat="47.97943" lon="6.98748">
        <ele>1176</ele>
        <time>2020-05-11T10:23:48.000Z</time>
      </trkpt>
      <trkpt lat="47.9794" lon="6.98761">
        <ele>1168</ele>
        <time>2020-05-11T10:23:58.000Z</time>
      </trkpt>
      <trkpt lat="47.97934" lon="6.98772">
        <ele>1167</ele>
        <time>2020-05-11T10:24:19.000Z</time>
      </trkpt>
      <trkpt lat="47.97926" lon="6.9878">
        <ele>1167</ele>
        <time>2020-05-11T10:24:25.000Z</time>
      </trkpt>
      <trkpt lat="47.97919" lon="6.98789">
        <ele>1166</ele>
        <time>2020-05-11T10:24:32.000Z</time>
      </trkpt>
      <trkpt lat="47.97911" lon="6.988">
        <ele>1180</ele>
        <time>2020-05-11T10:24:40.000Z</time>
      </trkpt>
      <trkpt lat="47.97906" lon="6.98812">
        <ele>1178</ele>
        <time>2020-05-11T10:24:47.000Z</time>
      </trkpt>
      <trkpt lat="47.97899" lon="6.98823">
        <ele>1177</ele>
        <time>2020-05-11T10:24:55.000Z</time>
      </trkpt>
      <trkpt lat="47.97893" lon="6.98834">
        <ele>1174</ele>
        <time>2020-05-11T10:25:03.000Z</time>
      </trkpt>
      <trkpt lat="47.97886" lon="6.98843">
        <ele>1177</ele>
        <time>2020-05-11T10:25:11.000Z</time>
      </trkpt>
      <trkpt lat="47.97878" lon="6.98852">
        <ele>1178</ele>
        <time>2020-05-11T10:25:19.000Z</time>
      </trkpt>
      <trkpt lat="47.97872" lon="6.98862">
        <ele>1180</ele>
        <time>2020-05-11T10:25:27.000Z</time>
      </trkpt>
      <trkpt lat="47.97868" lon="6.98875">
        <ele>1180</ele>
        <time>2020-05-11T10:25:35.000Z</time>
      </trkpt>
      <trkpt lat="47.97862" lon="6.98886">
        <ele>1181</ele>
        <time>2020-05-11T10:25:41.000Z</time>
      </trkpt>
      <trkpt lat="47.97854" lon="6.98895">
        <ele>1182</ele>
        <time>2020-05-11T10:25:47.000Z</time>
      </trkpt>
      <trkpt lat="47.97846" lon="6.98904">
        <ele>1184</ele>
        <time>2020-05-11T10:25:53.000Z</time>
      </trkpt>
      <trkpt lat="47.97844" lon="6.98917">
        <ele>1187</ele>
        <time>2020-05-11T10:26:02.000Z</time>
      </trkpt>
      <trkpt lat="47.97847" lon="6.9893">
        <ele>1186</ele>
        <time>2020-05-11T10:26:09.000Z</time>
      </trkpt>
      <trkpt lat="47.97855" lon="6.98938">
        <ele>1185</ele>
        <time>2020-05-11T10:26:18.000Z</time>
      </trkpt>
      <trkpt lat="47.97864" lon="6.98944">
        <ele>1184</ele>
        <time>2020-05-11T10:26:26.000Z</time>
      </trkpt>
      <trkpt lat="47.97873" lon="6.9895">
        <ele>1183</ele>
        <time>2020-05-11T10:26:36.000Z</time>
      </trkpt>
      <trkpt lat="47.97882" lon="6.98955">
        <ele>1182</ele>
        <time>2020-05-11T10:26:46.000Z</time>
      </trkpt>
      <trkpt lat="47.97891" lon="6.98962">
        <ele>1182</ele>
        <time>2020-05-11T10:26:54.000Z</time>
      </trkpt>
      <trkpt lat="47.97897" lon="6.98974">
        <ele>1182</ele>
        <time>2020-05-11T10:27:01.000Z</time>
      </trkpt>
      <trkpt lat="47.97903" lon="6.98985">
        <ele>1181</ele>
        <time>2020-05-11T10:27:09.000Z</time>
      </trkpt>
      <trkpt lat="47.97911" lon="6.98995">
        <ele>1180</ele>
        <time>2020-05-11T10:27:16.000Z</time>
      </trkpt>
      <trkpt lat="47.97919" lon="6.99003">
        <ele>1179</ele>
        <time>2020-05-11T10:27:23.000Z</time>
      </trkpt>
      <trkpt lat="47.97927" lon="6.9901">
        <ele>1178</ele>
        <time>2020-05-11T10:27:30.000Z</time>
      </trkpt>
      <trkpt lat="47.97935" lon="6.99018">
        <ele>1178</ele>
        <time>2020-05-11T10:27:38.000Z</time>
      </trkpt>
      <trkpt lat="47.97943" lon="6.99027">
        <ele>1178</ele>
        <time>2020-05-11T10:27:48.000Z</time>
      </trkpt>
      <trkpt lat="47.97951" lon="6.99033">
        <ele>1177</ele>
        <time>2020-05-11T10:27:57.000Z</time>
      </trkpt>
      <trkpt lat="47.9796" lon="6.99042">
        <ele>1177</ele>
        <time>2020-05-11T10:28:06.000Z</time>
      </trkpt>
      <trkpt lat="47.97965" lon="6.99054">
        <ele>1178</ele>
        <time>2020-05-11T10:28:15.000Z</time>
      </trkpt>
      <trkpt lat="47.97972" lon="6.99066">
        <ele>1178</ele>
        <time>2020-05-11T10:28:26.000Z</time>
      </trkpt>
      <trkpt lat="47.97977" lon="6.99078">
        <ele>1178</ele>
        <time>2020-05-11T10:28:32.000Z</time>
      </trkpt>
      <trkpt lat="47.97981" lon="6.99089">
        <ele>1185</ele>
        <time>2020-05-11T10:28:39.000Z</time>
      </trkpt>
      <trkpt lat="47.97986" lon="6.99102">
        <ele>1186</ele>
        <time>2020-05-11T10:28:46.000Z</time>
      </trkpt>
      <trkpt lat="47.97991" lon="6.99114">
        <ele>1187</ele>
        <time>2020-05-11T10:28:53.000Z</time>
      </trkpt>
      <trkpt lat="47.97995" lon="6.99126">
        <ele>1188</ele>
        <time>2020-05-11T10:29:00.000Z</time>
      </trkpt>
      <trkpt lat="47.98001" lon="6.99138">
        <ele>1174</ele>
        <time>2020-05-11T10:29:08.000Z</time>
      </trkpt>
      <trkpt lat="47.98004" lon="6.99151">
        <ele>1177</ele>
        <time>2020-05-11T10:29:20.000Z</time>
      </trkpt>
      <trkpt lat="47.98006" lon="6.99164">
        <ele>1182</ele>
        <time>2020-05-11T10:29:32.000Z</time>
      </trkpt>
      <trkpt lat="47.98016" lon="6.99164">
        <ele>1177</ele>
        <time>2020-05-11T10:31:03.000Z</time>
      </trkpt>
      <trkpt lat="47.98014" lon="6.99177">
        <ele>1182</ele>
        <time>2020-05-11T10:35:12.000Z</time>
      </trkpt>
      <trkpt lat="47.98022" lon="6.99184">
        <ele>1180</ele>
        <time>2020-05-11T10:36:12.000Z</time>
      </trkpt>
      <trkpt lat="47.98028" lon="6.99195">
        <ele>1179</ele>
        <time>2020-05-11T10:36:20.000Z</time>
      </trkpt>
      <trkpt lat="47.98034" lon="6.99205">
        <ele>1179</ele>
        <time>2020-05-11T10:36:28.000Z</time>
      </trkpt>
      <trkpt lat="47.98043" lon="6.99215">
        <ele>1178</ele>
        <time>2020-05-11T10:36:34.000Z</time>
      </trkpt>
      <trkpt lat="47.98051" lon="6.99224">
        <ele>1177</ele>
        <time>2020-05-11T10:36:41.000Z</time>
      </trkpt>
      <trkpt lat="47.98057" lon="6.99235">
        <ele>1176</ele>
        <time>2020-05-11T10:36:47.000Z</time>
      </trkpt>
      <trkpt lat="47.98065" lon="6.99245">
        <ele>1175</ele>
        <time>2020-05-11T10:36:55.000Z</time>
      </trkpt>
      <trkpt lat="47.98072" lon="6.99253">
        <ele>1176</ele>
        <time>2020-05-11T10:37:02.000Z</time>
      </trkpt>
      <trkpt lat="47.9808" lon="6.99261">
        <ele>1175</ele>
        <time>2020-05-11T10:37:10.000Z</time>
      </trkpt>
      <trkpt lat="47.98088" lon="6.99268">
        <ele>1168</ele>
        <time>2020-05-11T10:37:18.000Z</time>
      </trkpt>
      <trkpt lat="47.98095" lon="6.99279">
        <ele>1168</ele>
        <time>2020-05-11T10:37:26.000Z</time>
      </trkpt>
      <trkpt lat="47.98102" lon="6.99288">
        <ele>1168</ele>
        <time>2020-05-11T10:37:34.000Z</time>
      </trkpt>
      <trkpt lat="47.98111" lon="6.99292">
        <ele>1168</ele>
        <time>2020-05-11T10:37:40.000Z</time>
      </trkpt>
      <trkpt lat="47.9812" lon="6.99288">
        <ele>1166</ele>
        <time>2020-05-11T10:38:59.000Z</time>
      </trkpt>
      <trkpt lat="47.98129" lon="6.99294">
        <ele>1166</ele>
        <time>2020-05-11T10:39:07.000Z</time>
      </trkpt>
      <trkpt lat="47.98137" lon="6.99303">
        <ele>1166</ele>
        <time>2020-05-11T10:39:15.000Z</time>
      </trkpt>
      <trkpt lat="47.98147" lon="6.99309">
        <ele>1166</ele>
        <time>2020-05-11T10:39:22.000Z</time>
      </trkpt>
      <trkpt lat="47.98157" lon="6.99312">
        <ele>1165</ele>
        <time>2020-05-11T10:39:27.000Z</time>
      </trkpt>
      <trkpt lat="47.98166" lon="6.99317">
        <ele>1166</ele>
        <time>2020-05-11T10:39:39.000Z</time>
      </trkpt>
      <trkpt lat="47.98175" lon="6.99321">
        <ele>1157</ele>
        <time>2020-05-11T10:39:46.000Z</time>
      </trkpt>
      <trkpt lat="47.98184" lon="6.99328">
        <ele>1156</ele>
        <time>2020-05-11T10:39:56.000Z</time>
      </trkpt>
      <trkpt lat="47.98192" lon="6.99336">
        <ele>1163</ele>
        <time>2020-05-11T10:40:06.000Z</time>
      </trkpt>
      <trkpt lat="47.98201" lon="6.99342">
        <ele>1162</ele>
        <time>2020-05-11T10:40:14.000Z</time>
      </trkpt>
      <trkpt lat="47.98212" lon="6.99345">
        <ele>1161</ele>
        <time>2020-05-11T10:40:19.000Z</time>
      </trkpt>
      <trkpt lat="47.98223" lon="6.99347">
        <ele>1159</ele>
        <time>2020-05-11T10:40:26.000Z</time>
      </trkpt>
      <trkpt lat="47.98233" lon="6.99351">
        <ele>1158</ele>
        <time>2020-05-11T10:40:31.000Z</time>
      </trkpt>
      <trkpt lat="47.98241" lon="6.99357">
        <ele>1158</ele>
        <time>2020-05-11T10:40:36.999Z</time>
      </trkpt>
      <trkpt lat="47.9825" lon="6.99363">
        <ele>1147</ele>
        <time>2020-05-11T10:40:44.999Z</time>
      </trkpt>
      <trkpt lat="47.98259" lon="6.99368">
        <ele>1147</ele>
        <time>2020-05-11T10:40:51.999Z</time>
      </trkpt>
      <trkpt lat="47.98268" lon="6.99371">
        <ele>1146</ele>
        <time>2020-05-11T10:40:58.999Z</time>
      </trkpt>
      <trkpt lat="47.98278" lon="6.99374">
        <ele>1145</ele>
        <time>2020-05-11T10:41:07.999Z</time>
      </trkpt>
      <trkpt lat="47.98287" lon="6.99376">
        <ele>1144</ele>
        <time>2020-05-11T10:41:13.999Z</time>
      </trkpt>
      <trkpt lat="47.98297" lon="6.9938">
        <ele>1143</ele>
        <time>2020-05-11T10:41:20.999Z</time>
      </trkpt>
      <trkpt lat="47.98306" lon="6.99387">
        <ele>1143</ele>
        <time>2020-05-11T10:41:28.999Z</time>
      </trkpt>
      <trkpt lat="47.98314" lon="6.99392">
        <ele>1143</ele>
        <time>2020-05-11T10:41:36.999Z</time>
      </trkpt>
      <trkpt lat="47.98322" lon="6.994">
        <ele>1143</ele>
        <time>2020-05-11T10:41:44.999Z</time>
      </trkpt>
      <trkpt lat="47.9833" lon="6.99408">
        <ele>1143</ele>
        <time>2020-05-11T10:41:51.999Z</time>
      </trkpt>
      <trkpt lat="47.98339" lon="6.99413">
        <ele>1136</ele>
        <time>2020-05-11T10:41:58.999Z</time>
      </trkpt>
      <trkpt lat="47.98349" lon="6.99413">
        <ele>1129</ele>
        <time>2020-05-11T10:42:07.999Z</time>
      </trkpt>
      <trkpt lat="47.98359" lon="6.99415">
        <ele>1124</ele>
        <time>2020-05-11T10:42:15.999Z</time>
      </trkpt>
      <trkpt lat="47.98368" lon="6.99416">
        <ele>1120</ele>
        <time>2020-05-11T10:42:22.999Z</time>
      </trkpt>
      <trkpt lat="47.98378" lon="6.99421">
        <ele>1136</ele>
        <time>2020-05-11T10:42:30.999Z</time>
      </trkpt>
      <trkpt lat="47.98387" lon="6.99427">
        <ele>1133</ele>
        <time>2020-05-11T10:42:38.999Z</time>
      </trkpt>
      <trkpt lat="47.98396" lon="6.99431">
        <ele>1131</ele>
        <time>2020-05-11T10:42:45.999Z</time>
      </trkpt>
      <trkpt lat="47.98404" lon="6.99438">
        <ele>1131</ele>
        <time>2020-05-11T10:42:53.999Z</time>
      </trkpt>
      <trkpt lat="47.98411" lon="6.99446">
        <ele>1133</ele>
        <time>2020-05-11T10:43:02.999Z</time>
      </trkpt>
      <trkpt lat="47.9842" lon="6.99453">
        <ele>1117</ele>
        <time>2020-05-11T10:43:11.999Z</time>
      </trkpt>
      <trkpt lat="47.98428" lon="6.99459">
        <ele>1118</ele>
        <time>2020-05-11T10:43:20.999Z</time>
      </trkpt>
      <trkpt lat="47.98437" lon="6.99465">
        <ele>1119</ele>
        <time>2020-05-11T10:43:27.999Z</time>
      </trkpt>
      <trkpt lat="47.98446" lon="6.99472">
        <ele>1119</ele>
        <time>2020-05-11T10:43:35.999Z</time>
      </trkpt>
      <trkpt lat="47.98455" lon="6.99476">
        <ele>1117</ele>
        <time>2020-05-11T10:43:41.999Z</time>
      </trkpt>
      <trkpt lat="47.98464" lon="6.99483">
        <ele>1117</ele>
        <time>2020-05-11T10:43:49.999Z</time>
      </trkpt>
      <trkpt lat="47.98472" lon="6.99492">
        <ele>1116</ele>
        <time>2020-05-11T10:43:58.999Z</time>
      </trkpt>
      <trkpt lat="47.98479" lon="6.99501">
        <ele>1130</ele>
        <time>2020-05-11T10:44:06.999Z</time>
      </trkpt>
      <trkpt lat="47.98489" lon="6.99506">
        <ele>1125</ele>
        <time>2020-05-11T10:44:11.999Z</time>
      </trkpt>
      <trkpt lat="47.985" lon="6.99507">
        <ele>1121</ele>
        <time>2020-05-11T10:44:18.999Z</time>
      </trkpt>
      <trkpt lat="47.98509" lon="6.99508">
        <ele>1115</ele>
        <time>2020-05-11T10:44:26.999Z</time>
      </trkpt>
      <trkpt lat="47.98519" lon="6.99512">
        <ele>1115</ele>
        <time>2020-05-11T10:44:37.999Z</time>
      </trkpt>
      <trkpt lat="47.98527" lon="6.9952">
        <ele>1115</ele>
        <time>2020-05-11T10:44:46.999Z</time>
      </trkpt>
      <trkpt lat="47.98537" lon="6.99525">
        <ele>1114</ele>
        <time>2020-05-11T10:44:52.999Z</time>
      </trkpt>
      <trkpt lat="47.98545" lon="6.99532">
        <ele>1114</ele>
        <time>2020-05-11T10:45:00.999Z</time>
      </trkpt>
      <trkpt lat="47.98553" lon="6.99539">
        <ele>1114</ele>
        <time>2020-05-11T10:45:09.999Z</time>
      </trkpt>
      <trkpt lat="47.98561" lon="6.99549">
        <ele>1115</ele>
        <time>2020-05-11T10:45:18.999Z</time>
      </trkpt>
      <trkpt lat="47.98568" lon="6.99558">
        <ele>1116</ele>
        <time>2020-05-11T10:45:27.999Z</time>
      </trkpt>
      <trkpt lat="47.98577" lon="6.99562">
        <ele>1117</ele>
        <time>2020-05-11T10:45:35.999Z</time>
      </trkpt>
      <trkpt lat="47.98586" lon="6.99567">
        <ele>1107</ele>
        <time>2020-05-11T10:45:41.999Z</time>
      </trkpt>
      <trkpt lat="47.98596" lon="6.99569">
        <ele>1105</ele>
        <time>2020-05-11T10:45:47.999Z</time>
      </trkpt>
      <trkpt lat="47.98605" lon="6.99574">
        <ele>1103</ele>
        <time>2020-05-11T10:45:55.999Z</time>
      </trkpt>
      <trkpt lat="47.98614" lon="6.99577">
        <ele>1101</ele>
        <time>2020-05-11T10:46:09.999Z</time>
      </trkpt>
      <trkpt lat="47.98624" lon="6.99579">
        <ele>1098</ele>
        <time>2020-05-11T10:46:15.999Z</time>
      </trkpt>
      <trkpt lat="47.98634" lon="6.99581">
        <ele>1096</ele>
        <time>2020-05-11T10:46:23.999Z</time>
      </trkpt>
      <trkpt lat="47.98644" lon="6.99583">
        <ele>1095</ele>
        <time>2020-05-11T10:46:30.999Z</time>
      </trkpt>
      <trkpt lat="47.98653" lon="6.99585">
        <ele>1107</ele>
        <time>2020-05-11T10:46:36.999Z</time>
      </trkpt>
      <trkpt lat="47.98662" lon="6.99586">
        <ele>1101</ele>
        <time>2020-05-11T10:46:45.999Z</time>
      </trkpt>
      <trkpt lat="47.98671" lon="6.9959">
        <ele>1098</ele>
        <time>2020-05-11T10:46:56.999Z</time>
      </trkpt>
      <trkpt lat="47.98681" lon="6.99592">
        <ele>1098</ele>
        <time>2020-05-11T10:47:06.999Z</time>
      </trkpt>
      <trkpt lat="47.98691" lon="6.99594">
        <ele>1099</ele>
        <time>2020-05-11T10:47:16.999Z</time>
      </trkpt>
      <trkpt lat="47.98701" lon="6.99595">
        <ele>1098</ele>
        <time>2020-05-11T10:47:23.999Z</time>
      </trkpt>
      <trkpt lat="47.98711" lon="6.99595">
        <ele>1097</ele>
        <time>2020-05-11T10:47:30.999Z</time>
      </trkpt>
      <trkpt lat="47.9872" lon="6.99595">
        <ele>1095</ele>
        <time>2020-05-11T10:47:38.999Z</time>
      </trkpt>
      <trkpt lat="47.98729" lon="6.99599">
        <ele>1094</ele>
        <time>2020-05-11T10:47:46.999Z</time>
      </trkpt>
      <trkpt lat="47.98738" lon="6.99604">
        <ele>1093</ele>
        <time>2020-05-11T10:47:54.999Z</time>
      </trkpt>
      <trkpt lat="47.98747" lon="6.99609">
        <ele>1094</ele>
        <time>2020-05-11T10:48:00.999Z</time>
      </trkpt>
      <trkpt lat="47.98756" lon="6.99614">
        <ele>1084</ele>
        <time>2020-05-11T10:48:08.999Z</time>
      </trkpt>
      <trkpt lat="47.98765" lon="6.99617">
        <ele>1085</ele>
        <time>2020-05-11T10:48:18.999Z</time>
      </trkpt>
      <trkpt lat="47.98774" lon="6.99622">
        <ele>1085</ele>
        <time>2020-05-11T10:48:28.999Z</time>
      </trkpt>
      <trkpt lat="47.98784" lon="6.99627">
        <ele>1085</ele>
        <time>2020-05-11T10:48:36.999Z</time>
      </trkpt>
      <trkpt lat="47.98793" lon="6.99632">
        <ele>1085</ele>
        <time>2020-05-11T10:48:43.999Z</time>
      </trkpt>
      <trkpt lat="47.98803" lon="6.99634">
        <ele>1084</ele>
        <time>2020-05-11T10:48:50.999Z</time>
      </trkpt>
      <trkpt lat="47.98812" lon="6.99639">
        <ele>1084</ele>
        <time>2020-05-11T10:49:00.999Z</time>
      </trkpt>
      <trkpt lat="47.98821" lon="6.99642">
        <ele>1084</ele>
        <time>2020-05-11T10:49:09.999Z</time>
      </trkpt>
      <trkpt lat="47.9883" lon="6.99646">
        <ele>1085</ele>
        <time>2020-05-11T10:49:19.999Z</time>
      </trkpt>
      <trkpt lat="47.98839" lon="6.9965">
        <ele>1077</ele>
        <time>2020-05-11T10:49:25.999Z</time>
      </trkpt>
      <trkpt lat="47.98848" lon="6.99654">
        <ele>1076</ele>
        <time>2020-05-11T10:49:31.999Z</time>
      </trkpt>
      <trkpt lat="47.98859" lon="6.99653">
        <ele>1073</ele>
        <time>2020-05-11T10:49:37.999Z</time>
      </trkpt>
      <trkpt lat="47.98868" lon="6.99654">
        <ele>1071</ele>
        <time>2020-05-11T10:49:44.999Z</time>
      </trkpt>
      <trkpt lat="47.98878" lon="6.99656">
        <ele>1070</ele>
        <time>2020-05-11T10:49:52.999Z</time>
      </trkpt>
      <trkpt lat="47.98886" lon="6.99662">
        <ele>1070</ele>
        <time>2020-05-11T10:50:04.999Z</time>
      </trkpt>
      <trkpt lat="47.98895" lon="6.9967">
        <ele>1087</ele>
        <time>2020-05-11T10:50:16.999Z</time>
      </trkpt>
      <trkpt lat="47.98904" lon="6.99675">
        <ele>1084</ele>
        <time>2020-05-11T10:50:25.999Z</time>
      </trkpt>
      <trkpt lat="47.98914" lon="6.99675">
        <ele>1080</ele>
        <time>2020-05-11T10:50:34.999Z</time>
      </trkpt>
      <trkpt lat="47.98923" lon="6.99677">
        <ele>1077</ele>
        <time>2020-05-11T10:50:41.999Z</time>
      </trkpt>
      <trkpt lat="47.98932" lon="6.99677">
        <ele>1077</ele>
        <time>2020-05-11T10:50:48.999Z</time>
      </trkpt>
      <trkpt lat="47.98941" lon="6.99679">
        <ele>1078</ele>
        <time>2020-05-11T10:50:55.999Z</time>
      </trkpt>
      <trkpt lat="47.98951" lon="6.99681">
        <ele>1077</ele>
        <time>2020-05-11T10:51:02.999Z</time>
      </trkpt>
      <trkpt lat="47.9896" lon="6.99683">
        <ele>1077</ele>
        <time>2020-05-11T10:51:10.999Z</time>
      </trkpt>
      <trkpt lat="47.98969" lon="6.99683">
        <ele>1075</ele>
        <time>2020-05-11T10:51:17.999Z</time>
      </trkpt>
      <trkpt lat="47.9898" lon="6.99684">
        <ele>1073</ele>
        <time>2020-05-11T10:51:26.999Z</time>
      </trkpt>
      <trkpt lat="47.9899" lon="6.99684">
        <ele>1070</ele>
        <time>2020-05-11T10:51:34.999Z</time>
      </trkpt>
      <trkpt lat="47.98999" lon="6.99685">
        <ele>1069</ele>
        <time>2020-05-11T10:51:41.999Z</time>
      </trkpt>
      <trkpt lat="47.99008" lon="6.99685">
        <ele>1057</ele>
        <time>2020-05-11T10:51:50.999Z</time>
      </trkpt>
      <trkpt lat="47.99018" lon="6.99686">
        <ele>1057</ele>
        <time>2020-05-11T10:51:59.999Z</time>
      </trkpt>
      <trkpt lat="47.99027" lon="6.99689">
        <ele>1056</ele>
        <time>2020-05-11T10:52:08.999Z</time>
      </trkpt>
      <trkpt lat="47.99036" lon="6.99695">
        <ele>1056</ele>
        <time>2020-05-11T10:52:17.999Z</time>
      </trkpt>
      <trkpt lat="47.99045" lon="6.99701">
        <ele>1055</ele>
        <time>2020-05-11T10:52:25.999Z</time>
      </trkpt>
      <trkpt lat="47.99054" lon="6.99704">
        <ele>1054</ele>
        <time>2020-05-11T10:52:32.999Z</time>
      </trkpt>
      <trkpt lat="47.99063" lon="6.99706">
        <ele>1053</ele>
        <time>2020-05-11T10:52:39.999Z</time>
      </trkpt>
      <trkpt lat="47.99072" lon="6.99713">
        <ele>1054</ele>
        <time>2020-05-11T10:52:49.999Z</time>
      </trkpt>
      <trkpt lat="47.9908" lon="6.99719">
        <ele>1055</ele>
        <time>2020-05-11T10:52:56.999Z</time>
      </trkpt>
      <trkpt lat="47.99088" lon="6.99727">
        <ele>1039</ele>
        <time>2020-05-11T10:53:03.999Z</time>
      </trkpt>
      <trkpt lat="47.99096" lon="6.99735">
        <ele>1041</ele>
        <time>2020-05-11T10:53:09.999Z</time>
      </trkpt>
      <trkpt lat="47.99102" lon="6.99745">
        <ele>1042</ele>
        <time>2020-05-11T10:53:17.999Z</time>
      </trkpt>
      <trkpt lat="47.9911" lon="6.99752">
        <ele>1053</ele>
        <time>2020-05-11T10:53:25.999Z</time>
      </trkpt>
      <trkpt lat="47.99121" lon="6.99754">
        <ele>1050</ele>
        <time>2020-05-11T10:53:31.999Z</time>
      </trkpt>
      <trkpt lat="47.99131" lon="6.99757">
        <ele>1047</ele>
        <time>2020-05-11T10:53:37.999Z</time>
      </trkpt>
      <trkpt lat="47.99141" lon="6.99756">
        <ele>1043</ele>
        <time>2020-05-11T10:53:43.999Z</time>
      </trkpt>
      <trkpt lat="47.9915" lon="6.9976">
        <ele>1040</ele>
        <time>2020-05-11T10:53:50.999Z</time>
      </trkpt>
      <trkpt lat="47.99159" lon="6.99765">
        <ele>1038</ele>
        <time>2020-05-11T10:53:59.999Z</time>
      </trkpt>
      <trkpt lat="47.99168" lon="6.99768">
        <ele>1023</ele>
        <time>2020-05-11T10:54:05.999Z</time>
      </trkpt>
      <trkpt lat="47.99177" lon="6.99773">
        <ele>1023</ele>
        <time>2020-05-11T10:54:14.999Z</time>
      </trkpt>
      <trkpt lat="47.99184" lon="6.99781">
        <ele>1023</ele>
        <time>2020-05-11T10:54:23.999Z</time>
      </trkpt>
      <trkpt lat="47.99192" lon="6.99789">
        <ele>1023</ele>
        <time>2020-05-11T10:54:30.999Z</time>
      </trkpt>
      <trkpt lat="47.992" lon="6.99794">
        <ele>1022</ele>
        <time>2020-05-11T10:54:38.999Z</time>
      </trkpt>
      <trkpt lat="47.99209" lon="6.99801">
        <ele>1022</ele>
        <time>2020-05-11T10:54:46.999Z</time>
      </trkpt>
      <trkpt lat="47.99218" lon="6.99805">
        <ele>1021</ele>
        <time>2020-05-11T10:54:55.999Z</time>
      </trkpt>
      <trkpt lat="47.99225" lon="6.99814">
        <ele>1020</ele>
        <time>2020-05-11T10:55:09.999Z</time>
      </trkpt>
      <trkpt lat="47.99234" lon="6.99822">
        <ele>1019</ele>
        <time>2020-05-11T10:55:16.999Z</time>
      </trkpt>
      <trkpt lat="47.99241" lon="6.99831">
        <ele>1018</ele>
        <time>2020-05-11T10:55:23.999Z</time>
      </trkpt>
      <trkpt lat="47.99249" lon="6.9984">
        <ele>1022</ele>
        <time>2020-05-11T10:55:31.999Z</time>
      </trkpt>
      <trkpt lat="47.99257" lon="6.99847">
        <ele>1013</ele>
        <time>2020-05-11T10:55:39.999Z</time>
      </trkpt>
      <trkpt lat="47.99264" lon="6.99858">
        <ele>1012</ele>
        <time>2020-05-11T10:55:46.999Z</time>
      </trkpt>
      <trkpt lat="47.9927" lon="6.9987">
        <ele>1012</ele>
        <time>2020-05-11T10:55:56.999Z</time>
      </trkpt>
      <trkpt lat="47.99278" lon="6.99879">
        <ele>1012</ele>
        <time>2020-05-11T10:56:05.999Z</time>
      </trkpt>
      <trkpt lat="47.99282" lon="6.99891">
        <ele>1012</ele>
        <time>2020-05-11T10:56:18.999Z</time>
      </trkpt>
      <trkpt lat="47.99289" lon="6.99901">
        <ele>1012</ele>
        <time>2020-05-11T10:56:26.999Z</time>
      </trkpt>
      <trkpt lat="47.99296" lon="6.99912">
        <ele>1010</ele>
        <time>2020-05-11T10:56:34.999Z</time>
      </trkpt>
      <trkpt lat="47.99302" lon="6.99924">
        <ele>1017</ele>
        <time>2020-05-11T10:56:42.999Z</time>
      </trkpt>
      <trkpt lat="47.99308" lon="6.99935">
        <ele>1017</ele>
        <time>2020-05-11T10:56:50.999Z</time>
      </trkpt>
      <trkpt lat="47.99312" lon="6.99949">
        <ele>1018</ele>
        <time>2020-05-11T10:56:59.999Z</time>
      </trkpt>
      <trkpt lat="47.99315" lon="6.99962">
        <ele>1018</ele>
        <time>2020-05-11T10:57:05.999Z</time>
      </trkpt>
      <trkpt lat="47.99318" lon="6.99976">
        <ele>1018</ele>
        <time>2020-05-11T10:57:12.999Z</time>
      </trkpt>
      <trkpt lat="47.99322" lon="6.99989">
        <ele>1016</ele>
        <time>2020-05-11T10:57:22.999Z</time>
      </trkpt>
      <trkpt lat="47.99328" lon="7">
        <ele>1015</ele>
        <time>2020-05-11T10:57:30.999Z</time>
      </trkpt>
      <trkpt lat="47.99335" lon="7.00009">
        <ele>1007</ele>
        <time>2020-05-11T10:57:38.999Z</time>
      </trkpt>
      <trkpt lat="47.99343" lon="7.00018">
        <ele>1004</ele>
        <time>2020-05-11T10:57:46.999Z</time>
      </trkpt>
      <trkpt lat="47.99348" lon="7.00029">
        <ele>1003</ele>
        <time>2020-05-11T10:57:55.999Z</time>
      </trkpt>
      <trkpt lat="47.99354" lon="7.00041">
        <ele>1003</ele>
        <time>2020-05-11T10:58:04.999Z</time>
      </trkpt>
      <trkpt lat="47.9936" lon="7.00052">
        <ele>1003</ele>
        <time>2020-05-11T10:58:13.999Z</time>
      </trkpt>
      <trkpt lat="47.99365" lon="7.00064">
        <ele>1003</ele>
        <time>2020-05-11T10:58:21.999Z</time>
      </trkpt>
      <trkpt lat="47.99369" lon="7.00076">
        <ele>1003</ele>
        <time>2020-05-11T10:58:30.999Z</time>
      </trkpt>
      <trkpt lat="47.99371" lon="7.0009">
        <ele>1010</ele>
        <time>2020-05-11T10:58:38.999Z</time>
      </trkpt>
      <trkpt lat="47.99373" lon="7.00103">
        <ele>1010</ele>
        <time>2020-05-11T10:58:46.999Z</time>
      </trkpt>
      <trkpt lat="47.99376" lon="7.00116">
        <ele>1010</ele>
        <time>2020-05-11T10:58:54.999Z</time>
      </trkpt>
      <trkpt lat="47.99383" lon="7.00127">
        <ele>1010</ele>
        <time>2020-05-11T10:59:02.999Z</time>
      </trkpt>
      <trkpt lat="47.9939" lon="7.00136">
        <ele>1008</ele>
        <time>2020-05-11T10:59:11.999Z</time>
      </trkpt>
      <trkpt lat="47.99396" lon="7.00147">
        <ele>1007</ele>
        <time>2020-05-11T10:59:21.999Z</time>
      </trkpt>
      <trkpt lat="47.994" lon="7.00159">
        <ele>1005</ele>
        <time>2020-05-11T10:59:29.999Z</time>
      </trkpt>
      <trkpt lat="47.99405" lon="7.00172">
        <ele>1003</ele>
        <time>2020-05-11T10:59:36.999Z</time>
      </trkpt>
      <trkpt lat="47.9941" lon="7.00185">
        <ele>1005</ele>
        <time>2020-05-11T10:59:43.999Z</time>
      </trkpt>
      <trkpt lat="47.99414" lon="7.00197">
        <ele>1006</ele>
        <time>2020-05-11T10:59:51.999Z</time>
      </trkpt>
      <trkpt lat="47.99415" lon="7.00212">
        <ele>1006</ele>
        <time>2020-05-11T10:59:59.999Z</time>
      </trkpt>
      <trkpt lat="47.99416" lon="7.00227">
        <ele>1003</ele>
        <time>2020-05-11T11:00:06.999Z</time>
      </trkpt>
      <trkpt lat="47.99416" lon="7.00242">
        <ele>997</ele>
        <time>2020-05-11T11:00:14.999Z</time>
      </trkpt>
      <trkpt lat="47.99403" lon="7.00243">
        <ele>1001</ele>
        <time>2020-05-11T11:01:04.999Z</time>
      </trkpt>
      <trkpt lat="47.99414" lon="7.00231">
        <ele>1002</ele>
        <time>2020-05-11T11:01:16.999Z</time>
      </trkpt>
      <trkpt lat="47.99406" lon="7.00238">
        <ele>1002</ele>
        <time>2020-05-11T11:02:04.999Z</time>
      </trkpt>
      <trkpt lat="47.994" lon="7.00249">
        <ele>1002</ele>
        <time>2020-05-11T11:02:11.999Z</time>
      </trkpt>
      <trkpt lat="47.99391" lon="7.00257">
        <ele>995</ele>
        <time>2020-05-11T11:02:16.999Z</time>
      </trkpt>
      <trkpt lat="47.99384" lon="7.00267">
        <ele>996</ele>
        <time>2020-05-11T11:02:23.999Z</time>
      </trkpt>
      <trkpt lat="47.99377" lon="7.00276">
        <ele>997</ele>
        <time>2020-05-11T11:02:29.999Z</time>
      </trkpt>
      <trkpt lat="47.99371" lon="7.00286">
        <ele>996</ele>
        <time>2020-05-11T11:02:37.999Z</time>
      </trkpt>
      <trkpt lat="47.99363" lon="7.00292">
        <ele>997</ele>
        <time>2020-05-11T11:02:46.000Z</time>
      </trkpt>
      <trkpt lat="47.99353" lon="7.00295">
        <ele>998</ele>
        <time>2020-05-11T11:02:53.000Z</time>
      </trkpt>
      <trkpt lat="47.99345" lon="7.00304">
        <ele>997</ele>
        <time>2020-05-11T11:03:00.000Z</time>
      </trkpt>
      <trkpt lat="47.99337" lon="7.00311">
        <ele>996</ele>
        <time>2020-05-11T11:03:08.000Z</time>
      </trkpt>
      <trkpt lat="47.9933" lon="7.00324">
        <ele>1004</ele>
        <time>2020-05-11T11:03:16.000Z</time>
      </trkpt>
      <trkpt lat="47.99325" lon="7.00338">
        <ele>995</ele>
        <time>2020-05-11T11:03:21.000Z</time>
      </trkpt>
      <trkpt lat="47.99317" lon="7.00346">
        <ele>996</ele>
        <time>2020-05-11T11:03:32.000Z</time>
      </trkpt>
      <trkpt lat="47.99313" lon="7.00358">
        <ele>997</ele>
        <time>2020-05-11T11:03:38.000Z</time>
      </trkpt>
      <trkpt lat="47.9931" lon="7.00371">
        <ele>996</ele>
        <time>2020-05-11T11:03:48.000Z</time>
      </trkpt>
      <trkpt lat="47.9931" lon="7.00387">
        <ele>993</ele>
        <time>2020-05-11T11:03:54.000Z</time>
      </trkpt>
      <trkpt lat="47.9931" lon="7.00403">
        <ele>990</ele>
        <time>2020-05-11T11:03:59.000Z</time>
      </trkpt>
      <trkpt lat="47.99304" lon="7.00415">
        <ele>991</ele>
        <time>2020-05-11T11:04:05.000Z</time>
      </trkpt>
      <trkpt lat="47.993" lon="7.00429">
        <ele>983</ele>
        <time>2020-05-11T11:04:11.000Z</time>
      </trkpt>
      <trkpt lat="47.99294" lon="7.00441">
        <ele>984</ele>
        <time>2020-05-11T11:04:19.000Z</time>
      </trkpt>
      <trkpt lat="47.9929" lon="7.00453">
        <ele>984</ele>
        <time>2020-05-11T11:04:27.000Z</time>
      </trkpt>
      <trkpt lat="47.99291" lon="7.00468">
        <ele>983</ele>
        <time>2020-05-11T11:04:33.000Z</time>
      </trkpt>
      <trkpt lat="47.99299" lon="7.00474">
        <ele>981</ele>
        <time>2020-05-11T11:05:06.000Z</time>
      </trkpt>
      <trkpt lat="47.99304" lon="7.00461">
        <ele>981</ele>
        <time>2020-05-11T11:05:14.000Z</time>
      </trkpt>
      <trkpt lat="47.99315" lon="7.00449">
        <ele>980</ele>
        <time>2020-05-11T11:05:19.000Z</time>
      </trkpt>
      <trkpt lat="47.99318" lon="7.00436">
        <ele>979</ele>
        <time>2020-05-11T11:05:36.000Z</time>
      </trkpt>
      <trkpt lat="47.99318" lon="7.00451">
        <ele>980</ele>
        <time>2020-05-11T11:06:00.000Z</time>
      </trkpt>
      <trkpt lat="47.9932" lon="7.00465">
        <ele>979</ele>
        <time>2020-05-11T11:06:05.000Z</time>
      </trkpt>
      <trkpt lat="47.99329" lon="7.00471">
        <ele>977</ele>
        <time>2020-05-11T11:06:11.000Z</time>
      </trkpt>
      <trkpt lat="47.99339" lon="7.00476">
        <ele>961</ele>
        <time>2020-05-11T11:06:28.000Z</time>
      </trkpt>
      <trkpt lat="47.99348" lon="7.00476">
        <ele>960</ele>
        <time>2020-05-11T11:06:36.000Z</time>
      </trkpt>
      <trkpt lat="47.99355" lon="7.00486">
        <ele>960</ele>
        <time>2020-05-11T11:06:47.000Z</time>
      </trkpt>
      <trkpt lat="47.99364" lon="7.00489">
        <ele>958</ele>
        <time>2020-05-11T11:06:55.000Z</time>
      </trkpt>
      <trkpt lat="47.99373" lon="7.00491">
        <ele>957</ele>
        <time>2020-05-11T11:07:02.000Z</time>
      </trkpt>
      <trkpt lat="47.99381" lon="7.00484">
        <ele>955</ele>
        <time>2020-05-11T11:07:10.000Z</time>
      </trkpt>
      <trkpt lat="47.99389" lon="7.00478">
        <ele>954</ele>
        <time>2020-05-11T11:07:21.000Z</time>
      </trkpt>
      <trkpt lat="47.99398" lon="7.00483">
        <ele>952</ele>
        <time>2020-05-11T11:07:29.000Z</time>
      </trkpt>
      <trkpt lat="47.99408" lon="7.00484">
        <ele>951</ele>
        <time>2020-05-11T11:07:44.000Z</time>
      </trkpt>
      <trkpt lat="47.99415" lon="7.00476">
        <ele>951</ele>
        <time>2020-05-11T11:07:57.000Z</time>
      </trkpt>
      <trkpt lat="47.99425" lon="7.0048">
        <ele>935</ele>
        <time>2020-05-11T11:08:15.000Z</time>
      </trkpt>
      <trkpt lat="47.99433" lon="7.00486">
        <ele>934</ele>
        <time>2020-05-11T11:08:27.000Z</time>
      </trkpt>
      <trkpt lat="47.99438" lon="7.00475">
        <ele>932</ele>
        <time>2020-05-11T11:08:43.000Z</time>
      </trkpt>
      <trkpt lat="47.99445" lon="7.00465">
        <ele>930</ele>
        <time>2020-05-11T11:08:50.000Z</time>
      </trkpt>
      <trkpt lat="47.99453" lon="7.00458">
        <ele>928</ele>
        <time>2020-05-11T11:08:56.000Z</time>
      </trkpt>
      <trkpt lat="47.99462" lon="7.00463">
        <ele>926</ele>
        <time>2020-05-11T11:09:32.000Z</time>
      </trkpt>
      <trkpt lat="47.99473" lon="7.00461">
        <ele>924</ele>
        <time>2020-05-11T11:09:53.000Z</time>
      </trkpt>
      <trkpt lat="47.99483" lon="7.00463">
        <ele>922</ele>
        <time>2020-05-11T11:10:04.000Z</time>
      </trkpt>
      <trkpt lat="47.99484" lon="7.0048">
        <ele>919</ele>
        <time>2020-05-11T11:10:28.000Z</time>
      </trkpt>
      <trkpt lat="47.99493" lon="7.00476">
        <ele>918</ele>
        <time>2020-05-11T11:10:51.000Z</time>
      </trkpt>
      <trkpt lat="47.99502" lon="7.00478">
        <ele>901</ele>
        <time>2020-05-11T11:11:09.000Z</time>
      </trkpt>
      <trkpt lat="47.99512" lon="7.00481">
        <ele>900</ele>
        <time>2020-05-11T11:11:20.000Z</time>
      </trkpt>
      <trkpt lat="47.99523" lon="7.00479">
        <ele>899</ele>
        <time>2020-05-11T11:11:34.000Z</time>
      </trkpt>
      <trkpt lat="47.99532" lon="7.0048">
        <ele>897</ele>
        <time>2020-05-11T11:11:57.000Z</time>
      </trkpt>
      <trkpt lat="47.99538" lon="7.00469">
        <ele>897</ele>
        <time>2020-05-11T11:12:12.000Z</time>
      </trkpt>
      <trkpt lat="47.99547" lon="7.00466">
        <ele>895</ele>
        <time>2020-05-11T11:12:25.000Z</time>
      </trkpt>
      <trkpt lat="47.99555" lon="7.00459">
        <ele>895</ele>
        <time>2020-05-11T11:12:47.000Z</time>
      </trkpt>
      <trkpt lat="47.99565" lon="7.00458">
        <ele>893</ele>
        <time>2020-05-11T11:13:03.000Z</time>
      </trkpt>
      <trkpt lat="47.99574" lon="7.00447">
        <ele>893</ele>
        <time>2020-05-11T11:13:08.000Z</time>
      </trkpt>
      <trkpt lat="47.99582" lon="7.00436">
        <ele>892</ele>
        <time>2020-05-11T11:13:14.000Z</time>
      </trkpt>
      <trkpt lat="47.99591" lon="7.0044">
        <ele>878</ele>
        <time>2020-05-11T11:13:31.000Z</time>
      </trkpt>
      <trkpt lat="47.99598" lon="7.00458">
        <ele>875</ele>
        <time>2020-05-11T11:14:23.000Z</time>
      </trkpt>
      <trkpt lat="47.99607" lon="7.00453">
        <ele>874</ele>
        <time>2020-05-11T11:14:57.000Z</time>
      </trkpt>
      <trkpt lat="47.99617" lon="7.0045">
        <ele>872</ele>
        <time>2020-05-11T11:15:04.000Z</time>
      </trkpt>
      <trkpt lat="47.99626" lon="7.00452">
        <ele>871</ele>
        <time>2020-05-11T11:15:36.000Z</time>
      </trkpt>
      <trkpt lat="47.99636" lon="7.0045">
        <ele>869</ele>
        <time>2020-05-11T11:15:44.000Z</time>
      </trkpt>
      <trkpt lat="47.99645" lon="7.00452">
        <ele>868</ele>
        <time>2020-05-11T11:15:49.000Z</time>
      </trkpt>
      <trkpt lat="47.99655" lon="7.00448">
        <ele>866</ele>
        <time>2020-05-11T11:15:57.000Z</time>
      </trkpt>
      <trkpt lat="47.99665" lon="7.00446">
        <ele>865</ele>
        <time>2020-05-11T11:16:02.000Z</time>
      </trkpt>
      <trkpt lat="47.99673" lon="7.00439">
        <ele>848</ele>
        <time>2020-05-11T11:16:08.000Z</time>
      </trkpt>
      <trkpt lat="47.99681" lon="7.00429">
        <ele>848</ele>
        <time>2020-05-11T11:16:15.000Z</time>
      </trkpt>
      <trkpt lat="47.99686" lon="7.00417">
        <ele>847</ele>
        <time>2020-05-11T11:16:23.000Z</time>
      </trkpt>
      <trkpt lat="47.99688" lon="7.00403">
        <ele>843</ele>
        <time>2020-05-11T11:16:30.000Z</time>
      </trkpt>
      <trkpt lat="47.99686" lon="7.00388">
        <ele>841</ele>
        <time>2020-05-11T11:16:39.000Z</time>
      </trkpt>
      <trkpt lat="47.99682" lon="7.00376">
        <ele>842</ele>
        <time>2020-05-11T11:16:48.000Z</time>
      </trkpt>
      <trkpt lat="47.99676" lon="7.00365">
        <ele>843</ele>
        <time>2020-05-11T11:16:57.000Z</time>
      </trkpt>
      <trkpt lat="47.99672" lon="7.00352">
        <ele>846</ele>
        <time>2020-05-11T11:17:03.000Z</time>
      </trkpt>
      <trkpt lat="47.9967" lon="7.00339">
        <ele>853</ele>
        <time>2020-05-11T11:17:12.000Z</time>
      </trkpt>
      <trkpt lat="47.99669" lon="7.00325">
        <ele>850</ele>
        <time>2020-05-11T11:17:24.000Z</time>
      </trkpt>
      <trkpt lat="47.99672" lon="7.00311">
        <ele>842</ele>
        <time>2020-05-11T11:17:29.000Z</time>
      </trkpt>
      <trkpt lat="47.9967" lon="7.00296">
        <ele>839</ele>
        <time>2020-05-11T11:17:39.000Z</time>
      </trkpt>
      <trkpt lat="47.99668" lon="7.00283">
        <ele>839</ele>
        <time>2020-05-11T11:17:48.000Z</time>
      </trkpt>
      <trkpt lat="47.99678" lon="7.00284">
        <ele>838</ele>
        <time>2020-05-11T11:18:09.000Z</time>
      </trkpt>
      <trkpt lat="47.99673" lon="7.00272">
        <ele>840</ele>
        <time>2020-05-11T11:18:53.000Z</time>
      </trkpt>
      <trkpt lat="47.99666" lon="7.00259">
        <ele>859</ele>
        <time>2020-05-11T11:19:07.000Z</time>
      </trkpt>
      <trkpt lat="47.99676" lon="7.00264">
        <ele>841</ele>
        <time>2020-05-11T11:19:15.000Z</time>
      </trkpt>
      <trkpt lat="47.99685" lon="7.00269">
        <ele>837</ele>
        <time>2020-05-11T11:19:28.000Z</time>
      </trkpt>
      <trkpt lat="47.99694" lon="7.00274">
        <ele>834</ele>
        <time>2020-05-11T11:19:51.000Z</time>
      </trkpt>
      <trkpt lat="47.99701" lon="7.00267">
        <ele>831</ele>
        <time>2020-05-11T11:20:14.000Z</time>
      </trkpt>
      <trkpt lat="47.99705" lon="7.00279">
        <ele>830</ele>
        <time>2020-05-11T11:20:27.000Z</time>
      </trkpt>
      <trkpt lat="47.99704" lon="7.00265">
        <ele>830</ele>
        <time>2020-05-11T11:20:48.000Z</time>
      </trkpt>
      <trkpt lat="47.99715" lon="7.00265">
        <ele>826</ele>
        <time>2020-05-11T11:21:24.000Z</time>
      </trkpt>
      <trkpt lat="47.99719" lon="7.00252">
        <ele>823</ele>
        <time>2020-05-11T11:21:36.000Z</time>
      </trkpt>
      <trkpt lat="47.99728" lon="7.00247">
        <ele>816</ele>
        <time>2020-05-11T11:21:45.000Z</time>
      </trkpt>
      <trkpt lat="47.99733" lon="7.00235">
        <ele>816</ele>
        <time>2020-05-11T11:22:38.000Z</time>
      </trkpt>
      <trkpt lat="47.99742" lon="7.00235">
        <ele>813</ele>
        <time>2020-05-11T11:23:11.000Z</time>
      </trkpt>
      <trkpt lat="47.99739" lon="7.00248">
        <ele>811</ele>
        <time>2020-05-11T11:23:35.000Z</time>
      </trkpt>
      <trkpt lat="47.9973" lon="7.0025">
        <ele>816</ele>
        <time>2020-05-11T11:23:46.000Z</time>
      </trkpt>
      <trkpt lat="47.99739" lon="7.00232">
        <ele>815</ele>
        <time>2020-05-11T11:24:09.000Z</time>
      </trkpt>
      <trkpt lat="47.99742" lon="7.00248">
        <ele>809</ele>
        <time>2020-05-11T11:24:23.000Z</time>
      </trkpt>
      <trkpt lat="47.99745" lon="7.00273">
        <ele>817</ele>
        <time>2020-05-11T11:24:28.000Z</time>
      </trkpt>
      <trkpt lat="47.99751" lon="7.00285">
        <ele>793</ele>
        <time>2020-05-11T11:25:00.000Z</time>
      </trkpt>
      <trkpt lat="47.99755" lon="7.00298">
        <ele>793</ele>
        <time>2020-05-11T11:25:05.000Z</time>
      </trkpt>
      <trkpt lat="47.9976" lon="7.00313">
        <ele>795</ele>
        <time>2020-05-11T11:25:10.000Z</time>
      </trkpt>
      <trkpt lat="47.99765" lon="7.00325">
        <ele>797</ele>
        <time>2020-05-11T11:25:16.000Z</time>
      </trkpt>
      <trkpt lat="47.99771" lon="7.00336">
        <ele>798</ele>
        <time>2020-05-11T11:25:24.000Z</time>
      </trkpt>
      <trkpt lat="47.99777" lon="7.00347">
        <ele>796</ele>
        <time>2020-05-11T11:25:33.000Z</time>
      </trkpt>
      <trkpt lat="47.99783" lon="7.00361">
        <ele>794</ele>
        <time>2020-05-11T11:25:40.000Z</time>
      </trkpt>
      <trkpt lat="47.99789" lon="7.00372">
        <ele>793</ele>
        <time>2020-05-11T11:25:45.000Z</time>
      </trkpt>
      <trkpt lat="47.99796" lon="7.00383">
        <ele>792</ele>
        <time>2020-05-11T11:25:59.000Z</time>
      </trkpt>
      <trkpt lat="47.998" lon="7.00397">
        <ele>792</ele>
        <time>2020-05-11T11:26:05.000Z</time>
      </trkpt>
      <trkpt lat="47.99799" lon="7.00412">
        <ele>792</ele>
        <time>2020-05-11T11:26:14.000Z</time>
      </trkpt>
      <trkpt lat="47.99797" lon="7.00427">
        <ele>803</ele>
        <time>2020-05-11T11:26:22.000Z</time>
      </trkpt>
      <trkpt lat="47.99798" lon="7.00442">
        <ele>804</ele>
        <time>2020-05-11T11:26:42.000Z</time>
      </trkpt>
      <trkpt lat="47.99804" lon="7.00453">
        <ele>805</ele>
        <time>2020-05-11T11:26:47.999Z</time>
      </trkpt>
      <trkpt lat="47.99813" lon="7.00457">
        <ele>804</ele>
        <time>2020-05-11T11:26:55.999Z</time>
      </trkpt>
      <trkpt lat="47.99823" lon="7.00464">
        <ele>804</ele>
        <time>2020-05-11T11:27:03.999Z</time>
      </trkpt>
      <trkpt lat="47.99831" lon="7.00459">
        <ele>802</ele>
        <time>2020-05-11T11:27:13.999Z</time>
      </trkpt>
      <trkpt lat="47.9984" lon="7.00456">
        <ele>782</ele>
        <time>2020-05-11T11:27:24.999Z</time>
      </trkpt>
      <trkpt lat="47.99847" lon="7.00466">
        <ele>783</ele>
        <time>2020-05-11T11:27:30.999Z</time>
      </trkpt>
      <trkpt lat="47.99856" lon="7.00471">
        <ele>782</ele>
        <time>2020-05-11T11:27:38.999Z</time>
      </trkpt>
      <trkpt lat="47.99865" lon="7.00471">
        <ele>780</ele>
        <time>2020-05-11T11:27:46.999Z</time>
      </trkpt>
      <trkpt lat="47.99875" lon="7.0047">
        <ele>778</ele>
        <time>2020-05-11T11:27:56.999Z</time>
      </trkpt>
      <trkpt lat="47.99883" lon="7.00464">
        <ele>776</ele>
        <time>2020-05-11T11:28:05.999Z</time>
      </trkpt>
      <trkpt lat="47.99888" lon="7.00452">
        <ele>774</ele>
        <time>2020-05-11T11:28:13.999Z</time>
      </trkpt>
      <trkpt lat="47.99883" lon="7.00438">
        <ele>773</ele>
        <time>2020-05-11T11:28:19.999Z</time>
      </trkpt>
      <trkpt lat="47.99875" lon="7.00431">
        <ele>774</ele>
        <time>2020-05-11T11:28:27.999Z</time>
      </trkpt>
      <trkpt lat="47.99865" lon="7.00428">
        <ele>776</ele>
        <time>2020-05-11T11:28:40.999Z</time>
      </trkpt>
      <trkpt lat="47.99857" lon="7.0042">
        <ele>777</ele>
        <time>2020-05-11T11:28:48.999Z</time>
      </trkpt>
      <trkpt lat="47.99847" lon="7.00415">
        <ele>771</ele>
        <time>2020-05-11T11:28:55.999Z</time>
      </trkpt>
      <trkpt lat="47.99832" lon="7.00407">
        <ele>784</ele>
        <time>2020-05-11T11:29:00.999Z</time>
      </trkpt>
      <trkpt lat="47.99832" lon="7.00392">
        <ele>786</ele>
        <time>2020-05-11T11:29:17.999Z</time>
      </trkpt>
      <trkpt lat="47.99832" lon="7.00377">
        <ele>786</ele>
        <time>2020-05-11T11:29:22.999Z</time>
      </trkpt>
      <trkpt lat="47.9983" lon="7.00363">
        <ele>783</ele>
        <time>2020-05-11T11:29:29.999Z</time>
      </trkpt>
      <trkpt lat="47.99824" lon="7.0035">
        <ele>780</ele>
        <time>2020-05-11T11:29:35.999Z</time>
      </trkpt>
      <trkpt lat="47.99818" lon="7.0034">
        <ele>779</ele>
        <time>2020-05-11T11:29:40.999Z</time>
      </trkpt>
      <trkpt lat="47.99817" lon="7.00325">
        <ele>777</ele>
        <time>2020-05-11T11:29:48.999Z</time>
      </trkpt>
      <trkpt lat="47.99812" lon="7.00311">
        <ele>780</ele>
        <time>2020-05-11T11:29:55.999Z</time>
      </trkpt>
      <trkpt lat="47.99813" lon="7.00297">
        <ele>781</ele>
        <time>2020-05-11T11:30:06.999Z</time>
      </trkpt>
      <trkpt lat="47.99811" lon="7.00284">
        <ele>781</ele>
        <time>2020-05-11T11:30:13.999Z</time>
      </trkpt>
      <trkpt lat="47.99819" lon="7.00277">
        <ele>779</ele>
        <time>2020-05-11T11:30:33.999Z</time>
      </trkpt>
      <trkpt lat="47.99828" lon="7.00274">
        <ele>777</ele>
        <time>2020-05-11T11:30:47.999Z</time>
      </trkpt>
      <trkpt lat="47.99836" lon="7.00282">
        <ele>759</ele>
        <time>2020-05-11T11:30:55.999Z</time>
      </trkpt>
      <trkpt lat="47.99843" lon="7.00292">
        <ele>758</ele>
        <time>2020-05-11T11:31:02.999Z</time>
      </trkpt>
      <trkpt lat="47.99852" lon="7.00298">
        <ele>757</ele>
        <time>2020-05-11T11:31:09.999Z</time>
      </trkpt>
      <trkpt lat="47.99861" lon="7.00301">
        <ele>756</ele>
        <time>2020-05-11T11:31:36.999Z</time>
      </trkpt>
      <trkpt lat="47.99868" lon="7.0031">
        <ele>755</ele>
        <time>2020-05-11T11:31:51.999Z</time>
      </trkpt>
      <trkpt lat="47.99877" lon="7.00316">
        <ele>753</ele>
        <time>2020-05-11T11:32:09.999Z</time>
      </trkpt>
      <trkpt lat="47.99886" lon="7.00321">
        <ele>751</ele>
        <time>2020-05-11T11:32:18.999Z</time>
      </trkpt>
      <trkpt lat="47.99895" lon="7.00317">
        <ele>750</ele>
        <time>2020-05-11T11:32:31.999Z</time>
      </trkpt>
      <trkpt lat="47.99902" lon="7.00307">
        <ele>750</ele>
        <time>2020-05-11T11:32:37.999Z</time>
      </trkpt>
      <trkpt lat="47.99911" lon="7.0031">
        <ele>748</ele>
        <time>2020-05-11T11:32:56.999Z</time>
      </trkpt>
      <trkpt lat="47.9992" lon="7.00313">
        <ele>731</ele>
        <time>2020-05-11T11:33:08.999Z</time>
      </trkpt>
      <trkpt lat="47.99929" lon="7.00309">
        <ele>729</ele>
        <time>2020-05-11T11:33:24.999Z</time>
      </trkpt>
      <trkpt lat="47.99938" lon="7.00309">
        <ele>727</ele>
        <time>2020-05-11T11:33:31.999Z</time>
      </trkpt>
      <trkpt lat="47.99947" lon="7.00303">
        <ele>725</ele>
        <time>2020-05-11T11:34:01.999Z</time>
      </trkpt>
      <trkpt lat="47.99956" lon="7.00299">
        <ele>723</ele>
        <time>2020-05-11T11:34:10.999Z</time>
      </trkpt>
      <trkpt lat="47.99965" lon="7.003">
        <ele>721</ele>
        <time>2020-05-11T11:34:16.999Z</time>
      </trkpt>
      <trkpt lat="47.99974" lon="7.00299">
        <ele>719</ele>
        <time>2020-05-11T11:34:22.999Z</time>
      </trkpt>
      <trkpt lat="47.99981" lon="7.0029">
        <ele>718</ele>
        <time>2020-05-11T11:34:30.999Z</time>
      </trkpt>
      <trkpt lat="47.99987" lon="7.00268">
        <ele>715</ele>
        <time>2020-05-11T11:34:35.999Z</time>
      </trkpt>
      <trkpt lat="47.99991" lon="7.00256">
        <ele>711</ele>
        <time>2020-05-11T11:34:41.999Z</time>
      </trkpt>
      <trkpt lat="47.99993" lon="7.00243">
        <ele>714</ele>
        <time>2020-05-11T11:34:48.999Z</time>
      </trkpt>
      <trkpt lat="47.99998" lon="7.00231">
        <ele>719</ele>
        <time>2020-05-11T11:35:02.999Z</time>
      </trkpt>
      <trkpt lat="48.00006" lon="7.00223">
        <ele>706</ele>
        <time>2020-05-11T11:35:12.999Z</time>
      </trkpt>
      <trkpt lat="48.00011" lon="7.00211">
        <ele>707</ele>
        <time>2020-05-11T11:35:17.999Z</time>
      </trkpt>
      <trkpt lat="48.00015" lon="7.00198">
        <ele>709</ele>
        <time>2020-05-11T11:35:27.999Z</time>
      </trkpt>
      <trkpt lat="48.0002" lon="7.00185">
        <ele>710</ele>
        <time>2020-05-11T11:35:38.999Z</time>
      </trkpt>
      <trkpt lat="48.00024" lon="7.00173">
        <ele>711</ele>
        <time>2020-05-11T11:35:45.999Z</time>
      </trkpt>
      <trkpt lat="48.00031" lon="7.00161">
        <ele>718</ele>
        <time>2020-05-11T11:35:51.999Z</time>
      </trkpt>
      <trkpt lat="48.00038" lon="7.00149">
        <ele>718</ele>
        <time>2020-05-11T11:35:59.999Z</time>
      </trkpt>
      <trkpt lat="48.00042" lon="7.00135">
        <ele>718</ele>
        <time>2020-05-11T11:36:06.999Z</time>
      </trkpt>
      <trkpt lat="48.00048" lon="7.00124">
        <ele>718</ele>
        <time>2020-05-11T11:36:12.999Z</time>
      </trkpt>
      <trkpt lat="48.00054" lon="7.00115">
        <ele>718</ele>
        <time>2020-05-11T11:36:21.999Z</time>
      </trkpt>
      <trkpt lat="48.00059" lon="7.00103">
        <ele>718</ele>
        <time>2020-05-11T11:36:33.999Z</time>
      </trkpt>
      <trkpt lat="48.00067" lon="7.00091">
        <ele>717</ele>
        <time>2020-05-11T11:36:38.999Z</time>
      </trkpt>
      <trkpt lat="48.00075" lon="7.00085">
        <ele>716</ele>
        <time>2020-05-11T11:36:43.999Z</time>
      </trkpt>
      <trkpt lat="48.00079" lon="7.00098">
        <ele>716</ele>
        <time>2020-05-11T11:37:17.999Z</time>
      </trkpt>
      <trkpt lat="48.00079" lon="7.00115">
        <ele>716</ele>
        <time>2020-05-11T11:37:25.999Z</time>
      </trkpt>
      <trkpt lat="48.00075" lon="7.00133">
        <ele>714</ele>
        <time>2020-05-11T11:37:30.999Z</time>
      </trkpt>
      <trkpt lat="48.00074" lon="7.00148">
        <ele>711</ele>
        <time>2020-05-11T11:37:35.999Z</time>
      </trkpt>
      <trkpt lat="48.00078" lon="7.00161">
        <ele>706</ele>
        <time>2020-05-11T11:37:41.999Z</time>
      </trkpt>
      <trkpt lat="48.0008" lon="7.00175">
        <ele>702</ele>
        <time>2020-05-11T11:37:47.999Z</time>
      </trkpt>
      <trkpt lat="48.00085" lon="7.00188">
        <ele>702</ele>
        <time>2020-05-11T11:37:54.999Z</time>
      </trkpt>
      <trkpt lat="48.00094" lon="7.00194">
        <ele>702</ele>
        <time>2020-05-11T11:38:03.999Z</time>
      </trkpt>
      <trkpt lat="48.00103" lon="7.00197">
        <ele>702</ele>
        <time>2020-05-11T11:38:11.999Z</time>
      </trkpt>
      <trkpt lat="48.00112" lon="7.002">
        <ele>703</ele>
        <time>2020-05-11T11:38:17.999Z</time>
      </trkpt>
      <trkpt lat="48.00123" lon="7.00205">
        <ele>704</ele>
        <time>2020-05-11T11:38:23.999Z</time>
      </trkpt>
      <trkpt lat="48.00131" lon="7.00214">
        <ele>704</ele>
        <time>2020-05-11T11:38:29.999Z</time>
      </trkpt>
      <trkpt lat="48.00132" lon="7.00227">
        <ele>703</ele>
        <time>2020-05-11T11:38:40.999Z</time>
      </trkpt>
      <trkpt lat="48.00142" lon="7.00232">
        <ele>704</ele>
        <time>2020-05-11T11:39:22.999Z</time>
      </trkpt>
      <trkpt lat="48.00153" lon="7.00228">
        <ele>704</ele>
        <time>2020-05-11T11:39:27.999Z</time>
      </trkpt>
      <trkpt lat="48.00143" lon="7.00236">
        <ele>704</ele>
        <time>2020-05-11T11:39:43.999Z</time>
      </trkpt>
      <trkpt lat="48.00135" lon="7.0023">
        <ele>703</ele>
        <time>2020-05-11T11:40:17.999Z</time>
      </trkpt>
      <trkpt lat="48.00136" lon="7.00228">
        <ele>703</ele>
        <time>2020-05-11T11:43:43.999Z</time>
      </trkpt>
    </trkseg>
  </trk>
</gpx>